<?xml version="1.0" encoding="UTF-8" standalone="no" ?>
<gpx xmlns="http://www.topografix.com/GPX/1/1" xmlns:xsi="http://www.w3.org/2001/XMLSchema-instance" xsi:schemaLocation="http://www.topografix.com/GPX/1/1 http://www.topografix.com/GPX/1/1/gpx.xsd" version="1.1" creator="VisuGPX - https://www.visugpx.com">
  <metadata>
    <name>St Off La Place </name>
    <desc><![CDATA[rando vtt de décrassage, pas de difficultés , chemin forestier ]]></desc>
  </metadata>
  <trk>
    <name><![CDATA[001-2009/11/01-15:31:23]]></name>
    <trkseg>
      <trkpt lat="45.73467" lon="6.00147">
        <ele>581</ele>
        <time>2009-11-01T14:31:23Z</time>
      </trkpt>
      <trkpt lat="45.7349" lon="6.0017">
        <ele>594</ele>
        <time>2009-11-01T14:32:47Z</time>
      </trkpt>
      <trkpt lat="45.73495" lon="6.00175">
        <ele>591</ele>
        <time>2009-11-01T14:32:53Z</time>
      </trkpt>
      <trkpt lat="45.735" lon="6.00181">
        <ele>580</ele>
        <time>2009-11-01T14:32:59Z</time>
      </trkpt>
      <trkpt lat="45.73491" lon="6.00199">
        <ele>577</ele>
        <time>2009-11-01T14:33:04Z</time>
      </trkpt>
      <trkpt lat="45.73487" lon="6.00214">
        <ele>576</ele>
        <time>2009-11-01T14:33:09Z</time>
      </trkpt>
      <trkpt lat="45.73485" lon="6.00232">
        <ele>576</ele>
        <time>2009-11-01T14:33:14Z</time>
      </trkpt>
      <trkpt lat="45.73486" lon="6.00254">
        <ele>579</ele>
        <time>2009-11-01T14:33:20Z</time>
      </trkpt>
      <trkpt lat="45.73487" lon="6.00265">
        <ele>582</ele>
        <time>2009-11-01T14:33:26Z</time>
      </trkpt>
      <trkpt lat="45.73493" lon="6.00272">
        <ele>581</ele>
        <time>2009-11-01T14:33:31Z</time>
      </trkpt>
      <trkpt lat="45.7351" lon="6.00277">
        <ele>584</ele>
        <time>2009-11-01T14:33:36Z</time>
      </trkpt>
      <trkpt lat="45.73531" lon="6.00286">
        <ele>589</ele>
        <time>2009-11-01T14:33:41Z</time>
      </trkpt>
      <trkpt lat="45.73551" lon="6.00296">
        <ele>595</ele>
        <time>2009-11-01T14:33:46Z</time>
      </trkpt>
      <trkpt lat="45.73573" lon="6.00308">
        <ele>600</ele>
        <time>2009-11-01T14:33:51Z</time>
      </trkpt>
      <trkpt lat="45.73594" lon="6.00318">
        <ele>605</ele>
        <time>2009-11-01T14:33:56Z</time>
      </trkpt>
      <trkpt lat="45.73617" lon="6.00327">
        <ele>609</ele>
        <time>2009-11-01T14:34:01Z</time>
      </trkpt>
      <trkpt lat="45.7364" lon="6.00347">
        <ele>611</ele>
        <time>2009-11-01T14:34:06Z</time>
      </trkpt>
      <trkpt lat="45.7366" lon="6.00367">
        <ele>611</ele>
        <time>2009-11-01T14:34:11Z</time>
      </trkpt>
      <trkpt lat="45.73683" lon="6.00403">
        <ele>611</ele>
        <time>2009-11-01T14:34:17Z</time>
      </trkpt>
      <trkpt lat="45.73701" lon="6.00432">
        <ele>611</ele>
        <time>2009-11-01T14:34:22Z</time>
      </trkpt>
      <trkpt lat="45.73718" lon="6.00462">
        <ele>611</ele>
        <time>2009-11-01T14:34:27Z</time>
      </trkpt>
      <trkpt lat="45.73739" lon="6.005">
        <ele>611</ele>
        <time>2009-11-01T14:34:33Z</time>
      </trkpt>
      <trkpt lat="45.7376" lon="6.00529">
        <ele>611</ele>
        <time>2009-11-01T14:34:38Z</time>
      </trkpt>
      <trkpt lat="45.73786" lon="6.00547">
        <ele>611</ele>
        <time>2009-11-01T14:34:43Z</time>
      </trkpt>
      <trkpt lat="45.73814" lon="6.0056">
        <ele>611</ele>
        <time>2009-11-01T14:34:48Z</time>
      </trkpt>
      <trkpt lat="45.73846" lon="6.00575">
        <ele>611</ele>
        <time>2009-11-01T14:34:54Z</time>
      </trkpt>
      <trkpt lat="45.73868" lon="6.006">
        <ele>611</ele>
        <time>2009-11-01T14:34:59Z</time>
      </trkpt>
      <trkpt lat="45.73882" lon="6.00626">
        <ele>611</ele>
        <time>2009-11-01T14:35:04Z</time>
      </trkpt>
      <trkpt lat="45.73891" lon="6.00647">
        <ele>614</ele>
        <time>2009-11-01T14:35:09Z</time>
      </trkpt>
      <trkpt lat="45.73899" lon="6.00663">
        <ele>617</ele>
        <time>2009-11-01T14:35:14Z</time>
      </trkpt>
      <trkpt lat="45.73906" lon="6.0068">
        <ele>623</ele>
        <time>2009-11-01T14:35:20Z</time>
      </trkpt>
      <trkpt lat="45.73912" lon="6.00698">
        <ele>625</ele>
        <time>2009-11-01T14:35:26Z</time>
      </trkpt>
      <trkpt lat="45.73919" lon="6.00714">
        <ele>625</ele>
        <time>2009-11-01T14:35:31Z</time>
      </trkpt>
      <trkpt lat="45.73928" lon="6.00732">
        <ele>625</ele>
        <time>2009-11-01T14:35:36Z</time>
      </trkpt>
      <trkpt lat="45.73936" lon="6.0075">
        <ele>624</ele>
        <time>2009-11-01T14:35:41Z</time>
      </trkpt>
      <trkpt lat="45.73941" lon="6.00763">
        <ele>623</ele>
        <time>2009-11-01T14:35:46Z</time>
      </trkpt>
      <trkpt lat="45.73946" lon="6.00774">
        <ele>625</ele>
        <time>2009-11-01T14:35:51Z</time>
      </trkpt>
      <trkpt lat="45.73953" lon="6.00787">
        <ele>625</ele>
        <time>2009-11-01T14:35:57Z</time>
      </trkpt>
      <trkpt lat="45.73958" lon="6.00797">
        <ele>626</ele>
        <time>2009-11-01T14:36:02Z</time>
      </trkpt>
      <trkpt lat="45.73962" lon="6.00811">
        <ele>629</ele>
        <time>2009-11-01T14:36:07Z</time>
      </trkpt>
      <trkpt lat="45.73966" lon="6.00825">
        <ele>634</ele>
        <time>2009-11-01T14:36:12Z</time>
      </trkpt>
      <trkpt lat="45.73972" lon="6.00836">
        <ele>638</ele>
        <time>2009-11-01T14:36:17Z</time>
      </trkpt>
      <trkpt lat="45.73976" lon="6.00847">
        <ele>639</ele>
        <time>2009-11-01T14:36:22Z</time>
      </trkpt>
      <trkpt lat="45.7398" lon="6.00858">
        <ele>639</ele>
        <time>2009-11-01T14:36:27Z</time>
      </trkpt>
      <trkpt lat="45.73986" lon="6.00868">
        <ele>637</ele>
        <time>2009-11-01T14:36:32Z</time>
      </trkpt>
      <trkpt lat="45.73993" lon="6.00882">
        <ele>637</ele>
        <time>2009-11-01T14:36:38Z</time>
      </trkpt>
      <trkpt lat="45.73998" lon="6.00893">
        <ele>637</ele>
        <time>2009-11-01T14:36:43Z</time>
      </trkpt>
      <trkpt lat="45.74003" lon="6.00902">
        <ele>637</ele>
        <time>2009-11-01T14:36:49Z</time>
      </trkpt>
      <trkpt lat="45.74009" lon="6.00912">
        <ele>637</ele>
        <time>2009-11-01T14:36:54Z</time>
      </trkpt>
      <trkpt lat="45.74013" lon="6.00922">
        <ele>637</ele>
        <time>2009-11-01T14:36:59Z</time>
      </trkpt>
      <trkpt lat="45.74017" lon="6.00932">
        <ele>637</ele>
        <time>2009-11-01T14:37:04Z</time>
      </trkpt>
      <trkpt lat="45.7402" lon="6.00944">
        <ele>637</ele>
        <time>2009-11-01T14:37:09Z</time>
      </trkpt>
      <trkpt lat="45.7402" lon="6.00956">
        <ele>637</ele>
        <time>2009-11-01T14:37:14Z</time>
      </trkpt>
      <trkpt lat="45.74017" lon="6.00971">
        <ele>638</ele>
        <time>2009-11-01T14:37:20Z</time>
      </trkpt>
      <trkpt lat="45.74014" lon="6.00987">
        <ele>638</ele>
        <time>2009-11-01T14:37:25Z</time>
      </trkpt>
      <trkpt lat="45.74009" lon="6.01003">
        <ele>635</ele>
        <time>2009-11-01T14:37:30Z</time>
      </trkpt>
      <trkpt lat="45.74003" lon="6.01015">
        <ele>630</ele>
        <time>2009-11-01T14:37:35Z</time>
      </trkpt>
      <trkpt lat="45.73997" lon="6.01028">
        <ele>628</ele>
        <time>2009-11-01T14:37:40Z</time>
      </trkpt>
      <trkpt lat="45.73992" lon="6.01042">
        <ele>627</ele>
        <time>2009-11-01T14:37:45Z</time>
      </trkpt>
      <trkpt lat="45.73989" lon="6.01058">
        <ele>627</ele>
        <time>2009-11-01T14:37:50Z</time>
      </trkpt>
      <trkpt lat="45.73988" lon="6.01077">
        <ele>627</ele>
        <time>2009-11-01T14:37:56Z</time>
      </trkpt>
      <trkpt lat="45.7399" lon="6.01096">
        <ele>627</ele>
        <time>2009-11-01T14:38:01Z</time>
      </trkpt>
      <trkpt lat="45.73991" lon="6.01114">
        <ele>627</ele>
        <time>2009-11-01T14:38:06Z</time>
      </trkpt>
      <trkpt lat="45.73992" lon="6.01133">
        <ele>627</ele>
        <time>2009-11-01T14:38:11Z</time>
      </trkpt>
      <trkpt lat="45.73993" lon="6.01152">
        <ele>627</ele>
        <time>2009-11-01T14:38:16Z</time>
      </trkpt>
      <trkpt lat="45.73995" lon="6.01171">
        <ele>627</ele>
        <time>2009-11-01T14:38:21Z</time>
      </trkpt>
      <trkpt lat="45.73996" lon="6.01189">
        <ele>627</ele>
        <time>2009-11-01T14:38:26Z</time>
      </trkpt>
      <trkpt lat="45.73998" lon="6.01206">
        <ele>627</ele>
        <time>2009-11-01T14:38:31Z</time>
      </trkpt>
      <trkpt lat="45.74" lon="6.01223">
        <ele>627</ele>
        <time>2009-11-01T14:38:36Z</time>
      </trkpt>
      <trkpt lat="45.74002" lon="6.01239">
        <ele>629</ele>
        <time>2009-11-01T14:38:41Z</time>
      </trkpt>
      <trkpt lat="45.74005" lon="6.01256">
        <ele>631</ele>
        <time>2009-11-01T14:38:46Z</time>
      </trkpt>
      <trkpt lat="45.74007" lon="6.01273">
        <ele>631</ele>
        <time>2009-11-01T14:38:51Z</time>
      </trkpt>
      <trkpt lat="45.74007" lon="6.01285">
        <ele>633</ele>
        <time>2009-11-01T14:38:56Z</time>
      </trkpt>
      <trkpt lat="45.7401" lon="6.01299">
        <ele>637</ele>
        <time>2009-11-01T14:39:01Z</time>
      </trkpt>
      <trkpt lat="45.74015" lon="6.01312">
        <ele>640</ele>
        <time>2009-11-01T14:39:06Z</time>
      </trkpt>
      <trkpt lat="45.74022" lon="6.01324">
        <ele>643</ele>
        <time>2009-11-01T14:39:11Z</time>
      </trkpt>
      <trkpt lat="45.74028" lon="6.01331">
        <ele>648</ele>
        <time>2009-11-01T14:39:16Z</time>
      </trkpt>
      <trkpt lat="45.74036" lon="6.01336">
        <ele>650</ele>
        <time>2009-11-01T14:39:21Z</time>
      </trkpt>
      <trkpt lat="45.74042" lon="6.01344">
        <ele>654</ele>
        <time>2009-11-01T14:39:26Z</time>
      </trkpt>
      <trkpt lat="45.74042" lon="6.01357">
        <ele>655</ele>
        <time>2009-11-01T14:39:31Z</time>
      </trkpt>
      <trkpt lat="45.74036" lon="6.01369">
        <ele>655</ele>
        <time>2009-11-01T14:39:36Z</time>
      </trkpt>
      <trkpt lat="45.74027" lon="6.01373">
        <ele>653</ele>
        <time>2009-11-01T14:39:41Z</time>
      </trkpt>
      <trkpt lat="45.74015" lon="6.01371">
        <ele>650</ele>
        <time>2009-11-01T14:39:46Z</time>
      </trkpt>
      <trkpt lat="45.74009" lon="6.01373">
        <ele>648</ele>
        <time>2009-11-01T14:39:51Z</time>
      </trkpt>
      <trkpt lat="45.74002" lon="6.01375">
        <ele>648</ele>
        <time>2009-11-01T14:39:56Z</time>
      </trkpt>
      <trkpt lat="45.73998" lon="6.01383">
        <ele>648</ele>
        <time>2009-11-01T14:40:01Z</time>
      </trkpt>
      <trkpt lat="45.73996" lon="6.01393">
        <ele>648</ele>
        <time>2009-11-01T14:40:06Z</time>
      </trkpt>
      <trkpt lat="45.73997" lon="6.01401">
        <ele>648</ele>
        <time>2009-11-01T14:40:12Z</time>
      </trkpt>
      <trkpt lat="45.74" lon="6.01411">
        <ele>649</ele>
        <time>2009-11-01T14:40:17Z</time>
      </trkpt>
      <trkpt lat="45.74003" lon="6.01422">
        <ele>655</ele>
        <time>2009-11-01T14:40:23Z</time>
      </trkpt>
      <trkpt lat="45.74008" lon="6.01431">
        <ele>658</ele>
        <time>2009-11-01T14:40:28Z</time>
      </trkpt>
      <trkpt lat="45.74015" lon="6.01439">
        <ele>660</ele>
        <time>2009-11-01T14:40:33Z</time>
      </trkpt>
      <trkpt lat="45.74024" lon="6.01443">
        <ele>662</ele>
        <time>2009-11-01T14:40:38Z</time>
      </trkpt>
      <trkpt lat="45.74032" lon="6.01448">
        <ele>664</ele>
        <time>2009-11-01T14:40:43Z</time>
      </trkpt>
      <trkpt lat="45.7404" lon="6.01454">
        <ele>667</ele>
        <time>2009-11-01T14:40:48Z</time>
      </trkpt>
      <trkpt lat="45.74046" lon="6.01461">
        <ele>672</ele>
        <time>2009-11-01T14:40:53Z</time>
      </trkpt>
      <trkpt lat="45.74053" lon="6.01472">
        <ele>677</ele>
        <time>2009-11-01T14:40:58Z</time>
      </trkpt>
      <trkpt lat="45.74058" lon="6.01481">
        <ele>678</ele>
        <time>2009-11-01T14:41:03Z</time>
      </trkpt>
      <trkpt lat="45.74063" lon="6.0149">
        <ele>680</ele>
        <time>2009-11-01T14:41:08Z</time>
      </trkpt>
      <trkpt lat="45.74065" lon="6.01501">
        <ele>680</ele>
        <time>2009-11-01T14:41:13Z</time>
      </trkpt>
      <trkpt lat="45.74063" lon="6.01514">
        <ele>680</ele>
        <time>2009-11-01T14:41:18Z</time>
      </trkpt>
      <trkpt lat="45.74059" lon="6.01529">
        <ele>679</ele>
        <time>2009-11-01T14:41:24Z</time>
      </trkpt>
      <trkpt lat="45.74051" lon="6.01537">
        <ele>673</ele>
        <time>2009-11-01T14:41:29Z</time>
      </trkpt>
      <trkpt lat="45.74041" lon="6.01539">
        <ele>670</ele>
        <time>2009-11-01T14:41:34Z</time>
      </trkpt>
      <trkpt lat="45.74033" lon="6.01543">
        <ele>668</ele>
        <time>2009-11-01T14:41:39Z</time>
      </trkpt>
      <trkpt lat="45.74026" lon="6.01547">
        <ele>668</ele>
        <time>2009-11-01T14:41:44Z</time>
      </trkpt>
      <trkpt lat="45.74016" lon="6.01548">
        <ele>668</ele>
        <time>2009-11-01T14:41:49Z</time>
      </trkpt>
      <trkpt lat="45.74007" lon="6.01543">
        <ele>668</ele>
        <time>2009-11-01T14:41:54Z</time>
      </trkpt>
      <trkpt lat="45.73996" lon="6.01532">
        <ele>668</ele>
        <time>2009-11-01T14:41:59Z</time>
      </trkpt>
      <trkpt lat="45.7399" lon="6.01527">
        <ele>668</ele>
        <time>2009-11-01T16:30:51Z</time>
      </trkpt>
      <trkpt lat="45.73989" lon="6.01526">
        <ele>668</ele>
        <time>2009-11-01T16:31:17Z</time>
      </trkpt>
      <trkpt lat="45.7398" lon="6.01521">
        <ele>668</ele>
        <time>2009-11-01T16:31:22Z</time>
      </trkpt>
      <trkpt lat="45.7397" lon="6.01523">
        <ele>668</ele>
        <time>2009-11-01T16:31:27Z</time>
      </trkpt>
      <trkpt lat="45.73966" lon="6.01531">
        <ele>668</ele>
        <time>2009-11-01T16:31:33Z</time>
      </trkpt>
      <trkpt lat="45.73961" lon="6.01542">
        <ele>668</ele>
        <time>2009-11-01T16:31:38Z</time>
      </trkpt>
      <trkpt lat="45.73958" lon="6.01555">
        <ele>668</ele>
        <time>2009-11-01T16:31:43Z</time>
      </trkpt>
      <trkpt lat="45.73954" lon="6.01565">
        <ele>669</ele>
        <time>2009-11-01T16:31:48Z</time>
      </trkpt>
      <trkpt lat="45.73941" lon="6.01563">
        <ele>670</ele>
        <time>2009-11-01T16:31:53Z</time>
      </trkpt>
      <trkpt lat="45.73927" lon="6.01557">
        <ele>670</ele>
        <time>2009-11-01T16:31:58Z</time>
      </trkpt>
      <trkpt lat="45.73915" lon="6.01549">
        <ele>670</ele>
        <time>2009-11-01T16:32:03Z</time>
      </trkpt>
      <trkpt lat="45.73903" lon="6.01539">
        <ele>670</ele>
        <time>2009-11-01T16:32:08Z</time>
      </trkpt>
      <trkpt lat="45.73891" lon="6.01528">
        <ele>670</ele>
        <time>2009-11-01T16:32:13Z</time>
      </trkpt>
      <trkpt lat="45.73878" lon="6.01517">
        <ele>670</ele>
        <time>2009-11-01T16:32:18Z</time>
      </trkpt>
      <trkpt lat="45.73863" lon="6.01506">
        <ele>670</ele>
        <time>2009-11-01T16:32:23Z</time>
      </trkpt>
      <trkpt lat="45.73846" lon="6.01492">
        <ele>670</ele>
        <time>2009-11-01T16:32:28Z</time>
      </trkpt>
      <trkpt lat="45.73825" lon="6.01471">
        <ele>670</ele>
        <time>2009-11-01T16:32:33Z</time>
      </trkpt>
      <trkpt lat="45.73803" lon="6.01447">
        <ele>670</ele>
        <time>2009-11-01T16:32:38Z</time>
      </trkpt>
      <trkpt lat="45.73784" lon="6.01425">
        <ele>670</ele>
        <time>2009-11-01T16:32:43Z</time>
      </trkpt>
      <trkpt lat="45.73766" lon="6.01402">
        <ele>670</ele>
        <time>2009-11-01T16:32:48Z</time>
      </trkpt>
      <trkpt lat="45.73746" lon="6.0138">
        <ele>670</ele>
        <time>2009-11-01T16:32:53Z</time>
      </trkpt>
      <trkpt lat="45.73724" lon="6.01358">
        <ele>670</ele>
        <time>2009-11-01T16:32:58Z</time>
      </trkpt>
      <trkpt lat="45.737" lon="6.01335">
        <ele>670</ele>
        <time>2009-11-01T16:33:03Z</time>
      </trkpt>
      <trkpt lat="45.73676" lon="6.01312">
        <ele>670</ele>
        <time>2009-11-01T16:33:08Z</time>
      </trkpt>
      <trkpt lat="45.73654" lon="6.01288">
        <ele>670</ele>
        <time>2009-11-01T16:33:13Z</time>
      </trkpt>
      <trkpt lat="45.73635" lon="6.01261">
        <ele>670</ele>
        <time>2009-11-01T16:33:18Z</time>
      </trkpt>
      <trkpt lat="45.73617" lon="6.01234">
        <ele>670</ele>
        <time>2009-11-01T16:33:23Z</time>
      </trkpt>
      <trkpt lat="45.73599" lon="6.01209">
        <ele>670</ele>
        <time>2009-11-01T16:33:28Z</time>
      </trkpt>
      <trkpt lat="45.73581" lon="6.01183">
        <ele>670</ele>
        <time>2009-11-01T16:33:33Z</time>
      </trkpt>
      <trkpt lat="45.73563" lon="6.01162">
        <ele>670</ele>
        <time>2009-11-01T16:33:38Z</time>
      </trkpt>
      <trkpt lat="45.73547" lon="6.01149">
        <ele>670</ele>
        <time>2009-11-01T16:33:43Z</time>
      </trkpt>
      <trkpt lat="45.73539" lon="6.01156">
        <ele>670</ele>
        <time>2009-11-01T16:33:48Z</time>
      </trkpt>
      <trkpt lat="45.73541" lon="6.01175">
        <ele>670</ele>
        <time>2009-11-01T16:33:53Z</time>
      </trkpt>
      <trkpt lat="45.73542" lon="6.0119">
        <ele>672</ele>
        <time>2009-11-01T16:33:58Z</time>
      </trkpt>
      <trkpt lat="45.73544" lon="6.01205">
        <ele>674</ele>
        <time>2009-11-01T16:34:03Z</time>
      </trkpt>
      <trkpt lat="45.73545" lon="6.01219">
        <ele>676</ele>
        <time>2009-11-01T16:34:08Z</time>
      </trkpt>
      <trkpt lat="45.73546" lon="6.01233">
        <ele>679</ele>
        <time>2009-11-01T16:34:13Z</time>
      </trkpt>
      <trkpt lat="45.73548" lon="6.01247">
        <ele>680</ele>
        <time>2009-11-01T16:34:18Z</time>
      </trkpt>
      <trkpt lat="45.7355" lon="6.01261">
        <ele>682</ele>
        <time>2009-11-01T16:34:23Z</time>
      </trkpt>
      <trkpt lat="45.73552" lon="6.01275">
        <ele>682</ele>
        <time>2009-11-01T16:34:28Z</time>
      </trkpt>
      <trkpt lat="45.73553" lon="6.01288">
        <ele>683</ele>
        <time>2009-11-01T16:34:33Z</time>
      </trkpt>
      <trkpt lat="45.73554" lon="6.013">
        <ele>683</ele>
        <time>2009-11-01T16:34:38Z</time>
      </trkpt>
      <trkpt lat="45.73555" lon="6.01312">
        <ele>684</ele>
        <time>2009-11-01T16:34:43Z</time>
      </trkpt>
      <trkpt lat="45.73556" lon="6.01323">
        <ele>684</ele>
        <time>2009-11-01T16:34:48Z</time>
      </trkpt>
      <trkpt lat="45.73558" lon="6.01336">
        <ele>686</ele>
        <time>2009-11-01T16:34:53Z</time>
      </trkpt>
      <trkpt lat="45.73559" lon="6.01346">
        <ele>687</ele>
        <time>2009-11-01T16:34:58Z</time>
      </trkpt>
      <trkpt lat="45.73559" lon="6.01356">
        <ele>688</ele>
        <time>2009-11-01T16:35:03Z</time>
      </trkpt>
      <trkpt lat="45.7356" lon="6.01369">
        <ele>690</ele>
        <time>2009-11-01T16:35:08Z</time>
      </trkpt>
      <trkpt lat="45.73562" lon="6.0138">
        <ele>692</ele>
        <time>2009-11-01T16:35:13Z</time>
      </trkpt>
      <trkpt lat="45.73565" lon="6.01394">
        <ele>695</ele>
        <time>2009-11-01T16:35:18Z</time>
      </trkpt>
      <trkpt lat="45.73565" lon="6.01402">
        <ele>695</ele>
        <time>2009-11-01T16:35:23Z</time>
      </trkpt>
      <trkpt lat="45.73565" lon="6.01412">
        <ele>696</ele>
        <time>2009-11-01T16:35:28Z</time>
      </trkpt>
      <trkpt lat="45.73566" lon="6.01422">
        <ele>697</ele>
        <time>2009-11-01T16:35:33Z</time>
      </trkpt>
      <trkpt lat="45.73566" lon="6.01432">
        <ele>697</ele>
        <time>2009-11-01T16:35:39Z</time>
      </trkpt>
      <trkpt lat="45.73569" lon="6.01443">
        <ele>698</ele>
        <time>2009-11-01T16:35:44Z</time>
      </trkpt>
      <trkpt lat="45.73571" lon="6.01453">
        <ele>700</ele>
        <time>2009-11-01T16:35:49Z</time>
      </trkpt>
      <trkpt lat="45.73573" lon="6.01463">
        <ele>701</ele>
        <time>2009-11-01T16:35:54Z</time>
      </trkpt>
      <trkpt lat="45.73576" lon="6.01472">
        <ele>706</ele>
        <time>2009-11-01T16:35:59Z</time>
      </trkpt>
      <trkpt lat="45.73579" lon="6.01479">
        <ele>711</ele>
        <time>2009-11-01T16:36:04Z</time>
      </trkpt>
      <trkpt lat="45.73582" lon="6.01488">
        <ele>714</ele>
        <time>2009-11-01T16:36:09Z</time>
      </trkpt>
      <trkpt lat="45.73585" lon="6.01497">
        <ele>718</ele>
        <time>2009-11-01T16:36:14Z</time>
      </trkpt>
      <trkpt lat="45.73588" lon="6.01507">
        <ele>719</ele>
        <time>2009-11-01T16:36:19Z</time>
      </trkpt>
      <trkpt lat="45.73592" lon="6.01519">
        <ele>719</ele>
        <time>2009-11-01T16:36:24Z</time>
      </trkpt>
      <trkpt lat="45.73597" lon="6.01528">
        <ele>719</ele>
        <time>2009-11-01T16:36:29Z</time>
      </trkpt>
      <trkpt lat="45.73602" lon="6.01536">
        <ele>719</ele>
        <time>2009-11-01T16:36:34Z</time>
      </trkpt>
      <trkpt lat="45.73609" lon="6.01544">
        <ele>719</ele>
        <time>2009-11-01T16:36:39Z</time>
      </trkpt>
      <trkpt lat="45.73618" lon="6.01551">
        <ele>720</ele>
        <time>2009-11-01T16:36:44Z</time>
      </trkpt>
      <trkpt lat="45.73628" lon="6.0156">
        <ele>721</ele>
        <time>2009-11-01T16:36:49Z</time>
      </trkpt>
      <trkpt lat="45.73633" lon="6.0157">
        <ele>722</ele>
        <time>2009-11-01T16:36:54Z</time>
      </trkpt>
      <trkpt lat="45.7364" lon="6.01584">
        <ele>722</ele>
        <time>2009-11-01T16:36:59Z</time>
      </trkpt>
      <trkpt lat="45.73645" lon="6.01596">
        <ele>722</ele>
        <time>2009-11-01T16:37:04Z</time>
      </trkpt>
      <trkpt lat="45.73648" lon="6.01607">
        <ele>719</ele>
        <time>2009-11-01T16:37:09Z</time>
      </trkpt>
      <trkpt lat="45.73652" lon="6.01618">
        <ele>719</ele>
        <time>2009-11-01T16:37:14Z</time>
      </trkpt>
      <trkpt lat="45.73656" lon="6.0163">
        <ele>719</ele>
        <time>2009-11-01T16:37:19Z</time>
      </trkpt>
      <trkpt lat="45.73662" lon="6.01639">
        <ele>719</ele>
        <time>2009-11-01T16:37:24Z</time>
      </trkpt>
      <trkpt lat="45.73666" lon="6.01645">
        <ele>720</ele>
        <time>2009-11-01T16:37:29Z</time>
      </trkpt>
      <trkpt lat="45.73674" lon="6.01652">
        <ele>722</ele>
        <time>2009-11-01T16:37:34Z</time>
      </trkpt>
      <trkpt lat="45.73682" lon="6.01656">
        <ele>725</ele>
        <time>2009-11-01T16:37:39Z</time>
      </trkpt>
      <trkpt lat="45.73689" lon="6.01659">
        <ele>728</ele>
        <time>2009-11-01T16:37:44Z</time>
      </trkpt>
      <trkpt lat="45.73696" lon="6.01662">
        <ele>730</ele>
        <time>2009-11-01T16:37:49Z</time>
      </trkpt>
      <trkpt lat="45.73702" lon="6.01666">
        <ele>731</ele>
        <time>2009-11-01T16:37:55Z</time>
      </trkpt>
      <trkpt lat="45.73708" lon="6.0167">
        <ele>732</ele>
        <time>2009-11-01T16:38:00Z</time>
      </trkpt>
      <trkpt lat="45.73715" lon="6.01673">
        <ele>735</ele>
        <time>2009-11-01T16:38:05Z</time>
      </trkpt>
      <trkpt lat="45.73721" lon="6.01677">
        <ele>735</ele>
        <time>2009-11-01T16:38:10Z</time>
      </trkpt>
      <trkpt lat="45.73727" lon="6.01681">
        <ele>737</ele>
        <time>2009-11-01T16:38:15Z</time>
      </trkpt>
      <trkpt lat="45.73733" lon="6.01685">
        <ele>737</ele>
        <time>2009-11-01T16:38:20Z</time>
      </trkpt>
      <trkpt lat="45.7374" lon="6.01691">
        <ele>737</ele>
        <time>2009-11-01T16:38:26Z</time>
      </trkpt>
      <trkpt lat="45.73744" lon="6.01697">
        <ele>739</ele>
        <time>2009-11-01T16:38:31Z</time>
      </trkpt>
      <trkpt lat="45.7375" lon="6.01705">
        <ele>740</ele>
        <time>2009-11-01T16:38:36Z</time>
      </trkpt>
      <trkpt lat="45.73753" lon="6.01715">
        <ele>740</ele>
        <time>2009-11-01T16:38:41Z</time>
      </trkpt>
      <trkpt lat="45.73758" lon="6.01724">
        <ele>740</ele>
        <time>2009-11-01T16:38:47Z</time>
      </trkpt>
      <trkpt lat="45.73759" lon="6.01732">
        <ele>740</ele>
        <time>2009-11-01T16:38:52Z</time>
      </trkpt>
      <trkpt lat="45.73761" lon="6.01742">
        <ele>740</ele>
        <time>2009-11-01T16:38:57Z</time>
      </trkpt>
      <trkpt lat="45.73764" lon="6.01755">
        <ele>739</ele>
        <time>2009-11-01T16:39:02Z</time>
      </trkpt>
      <trkpt lat="45.73764" lon="6.01765">
        <ele>735</ele>
        <time>2009-11-01T16:39:07Z</time>
      </trkpt>
      <trkpt lat="45.73764" lon="6.01775">
        <ele>734</ele>
        <time>2009-11-01T16:39:12Z</time>
      </trkpt>
      <trkpt lat="45.73764" lon="6.01785">
        <ele>734</ele>
        <time>2009-11-01T16:39:17Z</time>
      </trkpt>
      <trkpt lat="45.73763" lon="6.01794">
        <ele>734</ele>
        <time>2009-11-01T16:39:22Z</time>
      </trkpt>
      <trkpt lat="45.73764" lon="6.01804">
        <ele>734</ele>
        <time>2009-11-01T16:39:27Z</time>
      </trkpt>
      <trkpt lat="45.73763" lon="6.01814">
        <ele>734</ele>
        <time>2009-11-01T16:39:32Z</time>
      </trkpt>
      <trkpt lat="45.73763" lon="6.01824">
        <ele>734</ele>
        <time>2009-11-01T16:39:38Z</time>
      </trkpt>
      <trkpt lat="45.73763" lon="6.01833">
        <ele>737</ele>
        <time>2009-11-01T16:39:43Z</time>
      </trkpt>
      <trkpt lat="45.73766" lon="6.01842">
        <ele>739</ele>
        <time>2009-11-01T16:39:48Z</time>
      </trkpt>
      <trkpt lat="45.73768" lon="6.01849">
        <ele>740</ele>
        <time>2009-11-01T16:39:54Z</time>
      </trkpt>
      <trkpt lat="45.73772" lon="6.01856">
        <ele>743</ele>
        <time>2009-11-01T16:40:00Z</time>
      </trkpt>
      <trkpt lat="45.73773" lon="6.01863">
        <ele>743</ele>
        <time>2009-11-01T16:40:05Z</time>
      </trkpt>
      <trkpt lat="45.73777" lon="6.01872">
        <ele>743</ele>
        <time>2009-11-01T16:40:10Z</time>
      </trkpt>
      <trkpt lat="45.73782" lon="6.01882">
        <ele>745</ele>
        <time>2009-11-01T16:40:15Z</time>
      </trkpt>
      <trkpt lat="45.73784" lon="6.01892">
        <ele>746</ele>
        <time>2009-11-01T16:40:20Z</time>
      </trkpt>
      <trkpt lat="45.73785" lon="6.01901">
        <ele>747</ele>
        <time>2009-11-01T16:40:25Z</time>
      </trkpt>
      <trkpt lat="45.73787" lon="6.01913">
        <ele>747</ele>
        <time>2009-11-01T16:40:30Z</time>
      </trkpt>
      <trkpt lat="45.7379" lon="6.01925">
        <ele>748</ele>
        <time>2009-11-01T16:40:35Z</time>
      </trkpt>
      <trkpt lat="45.73792" lon="6.01937">
        <ele>748</ele>
        <time>2009-11-01T16:40:40Z</time>
      </trkpt>
      <trkpt lat="45.73795" lon="6.01949">
        <ele>748</ele>
        <time>2009-11-01T16:40:45Z</time>
      </trkpt>
      <trkpt lat="45.738" lon="6.01963">
        <ele>748</ele>
        <time>2009-11-01T16:40:50Z</time>
      </trkpt>
      <trkpt lat="45.73802" lon="6.01973">
        <ele>748</ele>
        <time>2009-11-01T16:40:55Z</time>
      </trkpt>
      <trkpt lat="45.73807" lon="6.01981">
        <ele>748</ele>
        <time>2009-11-01T16:41:00Z</time>
      </trkpt>
      <trkpt lat="45.73811" lon="6.0199">
        <ele>748</ele>
        <time>2009-11-01T16:41:05Z</time>
      </trkpt>
      <trkpt lat="45.73816" lon="6.01997">
        <ele>748</ele>
        <time>2009-11-01T16:41:10Z</time>
      </trkpt>
      <trkpt lat="45.73821" lon="6.02003">
        <ele>748</ele>
        <time>2009-11-01T16:41:16Z</time>
      </trkpt>
      <trkpt lat="45.73826" lon="6.02011">
        <ele>751</ele>
        <time>2009-11-01T16:41:21Z</time>
      </trkpt>
      <trkpt lat="45.73831" lon="6.02021">
        <ele>755</ele>
        <time>2009-11-01T16:41:26Z</time>
      </trkpt>
      <trkpt lat="45.73835" lon="6.0203">
        <ele>755</ele>
        <time>2009-11-01T16:41:31Z</time>
      </trkpt>
      <trkpt lat="45.73836" lon="6.0204">
        <ele>755</ele>
        <time>2009-11-01T16:41:36Z</time>
      </trkpt>
      <trkpt lat="45.73842" lon="6.02052">
        <ele>755</ele>
        <time>2009-11-01T16:41:41Z</time>
      </trkpt>
      <trkpt lat="45.73845" lon="6.02062">
        <ele>756</ele>
        <time>2009-11-01T16:41:46Z</time>
      </trkpt>
      <trkpt lat="45.73845" lon="6.02072">
        <ele>758</ele>
        <time>2009-11-01T16:41:51Z</time>
      </trkpt>
      <trkpt lat="45.73847" lon="6.0208">
        <ele>758</ele>
        <time>2009-11-01T16:41:56Z</time>
      </trkpt>
      <trkpt lat="45.73852" lon="6.0209">
        <ele>758</ele>
        <time>2009-11-01T16:42:01Z</time>
      </trkpt>
      <trkpt lat="45.73855" lon="6.02097">
        <ele>758</ele>
        <time>2009-11-01T16:42:06Z</time>
      </trkpt>
      <trkpt lat="45.73856" lon="6.02106">
        <ele>758</ele>
        <time>2009-11-01T16:42:11Z</time>
      </trkpt>
      <trkpt lat="45.73859" lon="6.02113">
        <ele>758</ele>
        <time>2009-11-01T16:42:18Z</time>
      </trkpt>
      <trkpt lat="45.73861" lon="6.02123">
        <ele>758</ele>
        <time>2009-11-01T16:42:23Z</time>
      </trkpt>
      <trkpt lat="45.73865" lon="6.02131">
        <ele>758</ele>
        <time>2009-11-01T16:42:28Z</time>
      </trkpt>
      <trkpt lat="45.73869" lon="6.02138">
        <ele>760</ele>
        <time>2009-11-01T16:42:33Z</time>
      </trkpt>
      <trkpt lat="45.73872" lon="6.02146">
        <ele>765</ele>
        <time>2009-11-01T16:42:38Z</time>
      </trkpt>
      <trkpt lat="45.73873" lon="6.02155">
        <ele>770</ele>
        <time>2009-11-01T16:42:43Z</time>
      </trkpt>
      <trkpt lat="45.73874" lon="6.02165">
        <ele>771</ele>
        <time>2009-11-01T16:42:48Z</time>
      </trkpt>
      <trkpt lat="45.73876" lon="6.02174">
        <ele>772</ele>
        <time>2009-11-01T16:42:54Z</time>
      </trkpt>
      <trkpt lat="45.73878" lon="6.0218">
        <ele>773</ele>
        <time>2009-11-01T16:42:59Z</time>
      </trkpt>
      <trkpt lat="45.73883" lon="6.02189">
        <ele>774</ele>
        <time>2009-11-01T16:43:04Z</time>
      </trkpt>
      <trkpt lat="45.73888" lon="6.02195">
        <ele>777</ele>
        <time>2009-11-01T16:43:09Z</time>
      </trkpt>
      <trkpt lat="45.73895" lon="6.02201">
        <ele>780</ele>
        <time>2009-11-01T16:43:15Z</time>
      </trkpt>
      <trkpt lat="45.739" lon="6.02208">
        <ele>781</ele>
        <time>2009-11-01T16:43:20Z</time>
      </trkpt>
      <trkpt lat="45.73906" lon="6.02216">
        <ele>781</ele>
        <time>2009-11-01T16:43:25Z</time>
      </trkpt>
      <trkpt lat="45.73911" lon="6.02225">
        <ele>781</ele>
        <time>2009-11-01T16:43:31Z</time>
      </trkpt>
      <trkpt lat="45.73915" lon="6.02231">
        <ele>783</ele>
        <time>2009-11-01T16:43:36Z</time>
      </trkpt>
      <trkpt lat="45.73919" lon="6.0224">
        <ele>786</ele>
        <time>2009-11-01T16:43:41Z</time>
      </trkpt>
      <trkpt lat="45.73922" lon="6.02252">
        <ele>786</ele>
        <time>2009-11-01T16:43:46Z</time>
      </trkpt>
      <trkpt lat="45.73924" lon="6.02263">
        <ele>786</ele>
        <time>2009-11-01T16:43:51Z</time>
      </trkpt>
      <trkpt lat="45.73926" lon="6.02275">
        <ele>782</ele>
        <time>2009-11-01T16:43:56Z</time>
      </trkpt>
      <trkpt lat="45.73925" lon="6.02285">
        <ele>782</ele>
        <time>2009-11-01T16:44:01Z</time>
      </trkpt>
      <trkpt lat="45.73924" lon="6.02297">
        <ele>782</ele>
        <time>2009-11-01T16:44:06Z</time>
      </trkpt>
      <trkpt lat="45.7392" lon="6.02307">
        <ele>782</ele>
        <time>2009-11-01T16:44:11Z</time>
      </trkpt>
      <trkpt lat="45.73916" lon="6.02315">
        <ele>780</ele>
        <time>2009-11-01T16:44:16Z</time>
      </trkpt>
      <trkpt lat="45.73914" lon="6.02325">
        <ele>778</ele>
        <time>2009-11-01T16:44:21Z</time>
      </trkpt>
      <trkpt lat="45.73913" lon="6.02335">
        <ele>774</ele>
        <time>2009-11-01T16:44:26Z</time>
      </trkpt>
      <trkpt lat="45.7391" lon="6.02348">
        <ele>772</ele>
        <time>2009-11-01T16:44:31Z</time>
      </trkpt>
      <trkpt lat="45.73905" lon="6.02355">
        <ele>772</ele>
        <time>2009-11-01T16:44:37Z</time>
      </trkpt>
      <trkpt lat="45.73904" lon="6.02363">
        <ele>772</ele>
        <time>2009-11-01T16:44:43Z</time>
      </trkpt>
      <trkpt lat="45.73905" lon="6.02376">
        <ele>772</ele>
        <time>2009-11-01T16:44:48Z</time>
      </trkpt>
      <trkpt lat="45.73903" lon="6.02384">
        <ele>772</ele>
        <time>2009-11-01T16:44:53Z</time>
      </trkpt>
      <trkpt lat="45.73902" lon="6.02396">
        <ele>774</ele>
        <time>2009-11-01T16:44:58Z</time>
      </trkpt>
      <trkpt lat="45.73901" lon="6.02406">
        <ele>777</ele>
        <time>2009-11-01T16:45:03Z</time>
      </trkpt>
      <trkpt lat="45.739" lon="6.02413">
        <ele>782</ele>
        <time>2009-11-01T16:45:08Z</time>
      </trkpt>
      <trkpt lat="45.73895" lon="6.02417">
        <ele>784</ele>
        <time>2009-11-01T16:45:13Z</time>
      </trkpt>
      <trkpt lat="45.7389" lon="6.02422">
        <ele>786</ele>
        <time>2009-11-01T16:45:18Z</time>
      </trkpt>
      <trkpt lat="45.73887" lon="6.0243">
        <ele>788</ele>
        <time>2009-11-01T16:45:24Z</time>
      </trkpt>
      <trkpt lat="45.73888" lon="6.02439">
        <ele>790</ele>
        <time>2009-11-01T16:45:29Z</time>
      </trkpt>
      <trkpt lat="45.73886" lon="6.02451">
        <ele>790</ele>
        <time>2009-11-01T16:45:35Z</time>
      </trkpt>
      <trkpt lat="45.73883" lon="6.02461">
        <ele>790</ele>
        <time>2009-11-01T16:45:40Z</time>
      </trkpt>
      <trkpt lat="45.73881" lon="6.02469">
        <ele>790</ele>
        <time>2009-11-01T16:45:45Z</time>
      </trkpt>
      <trkpt lat="45.7388" lon="6.02478">
        <ele>792</ele>
        <time>2009-11-01T16:45:50Z</time>
      </trkpt>
      <trkpt lat="45.73878" lon="6.02487">
        <ele>794</ele>
        <time>2009-11-01T16:45:55Z</time>
      </trkpt>
      <trkpt lat="45.7388" lon="6.02498">
        <ele>794</ele>
        <time>2009-11-01T16:46:00Z</time>
      </trkpt>
      <trkpt lat="45.73881" lon="6.02507">
        <ele>794</ele>
        <time>2009-11-01T16:46:05Z</time>
      </trkpt>
      <trkpt lat="45.73882" lon="6.02513">
        <ele>796</ele>
        <time>2009-11-01T16:46:10Z</time>
      </trkpt>
      <trkpt lat="45.73884" lon="6.0252">
        <ele>796</ele>
        <time>2009-11-01T16:46:15Z</time>
      </trkpt>
      <trkpt lat="45.73889" lon="6.02529">
        <ele>798</ele>
        <time>2009-11-01T16:46:20Z</time>
      </trkpt>
      <trkpt lat="45.73892" lon="6.02537">
        <ele>800</ele>
        <time>2009-11-01T16:46:25Z</time>
      </trkpt>
      <trkpt lat="45.73893" lon="6.02543">
        <ele>800</ele>
        <time>2009-11-01T16:46:31Z</time>
      </trkpt>
      <trkpt lat="45.73896" lon="6.02552">
        <ele>800</ele>
        <time>2009-11-01T16:46:37Z</time>
      </trkpt>
      <trkpt lat="45.739" lon="6.02561">
        <ele>800</ele>
        <time>2009-11-01T16:46:43Z</time>
      </trkpt>
      <trkpt lat="45.73902" lon="6.02569">
        <ele>800</ele>
        <time>2009-11-01T16:46:49Z</time>
      </trkpt>
      <trkpt lat="45.73904" lon="6.02574">
        <ele>802</ele>
        <time>2009-11-01T16:46:54Z</time>
      </trkpt>
      <trkpt lat="45.73904" lon="6.02584">
        <ele>803</ele>
        <time>2009-11-01T16:47:00Z</time>
      </trkpt>
      <trkpt lat="45.73907" lon="6.02594">
        <ele>803</ele>
        <time>2009-11-01T16:47:05Z</time>
      </trkpt>
      <trkpt lat="45.73908" lon="6.02604">
        <ele>803</ele>
        <time>2009-11-01T16:47:10Z</time>
      </trkpt>
      <trkpt lat="45.73911" lon="6.02614">
        <ele>804</ele>
        <time>2009-11-01T16:47:15Z</time>
      </trkpt>
      <trkpt lat="45.73917" lon="6.02625">
        <ele>808</ele>
        <time>2009-11-01T16:47:20Z</time>
      </trkpt>
      <trkpt lat="45.73915" lon="6.02633">
        <ele>811</ele>
        <time>2009-11-01T16:47:26Z</time>
      </trkpt>
      <trkpt lat="45.73915" lon="6.02637">
        <ele>814</ele>
        <time>2009-11-01T16:47:31Z</time>
      </trkpt>
      <trkpt lat="45.73917" lon="6.02643">
        <ele>815</ele>
        <time>2009-11-01T16:47:37Z</time>
      </trkpt>
      <trkpt lat="45.73922" lon="6.02649">
        <ele>818</ele>
        <time>2009-11-01T16:47:43Z</time>
      </trkpt>
      <trkpt lat="45.73928" lon="6.02657">
        <ele>820</ele>
        <time>2009-11-01T16:47:49Z</time>
      </trkpt>
      <trkpt lat="45.73932" lon="6.02662">
        <ele>820</ele>
        <time>2009-11-01T16:47:54Z</time>
      </trkpt>
      <trkpt lat="45.73934" lon="6.02664">
        <ele>820</ele>
        <time>2009-11-01T16:47:59Z</time>
      </trkpt>
      <trkpt lat="45.73942" lon="6.0267">
        <ele>820</ele>
        <time>2009-11-01T16:48:06Z</time>
      </trkpt>
      <trkpt lat="45.73948" lon="6.02671">
        <ele>820</ele>
        <time>2009-11-01T16:48:11Z</time>
      </trkpt>
      <trkpt lat="45.73954" lon="6.02675">
        <ele>821</ele>
        <time>2009-11-01T16:48:16Z</time>
      </trkpt>
      <trkpt lat="45.73957" lon="6.02678">
        <ele>821</ele>
        <time>2009-11-01T16:48:21Z</time>
      </trkpt>
      <trkpt lat="45.73963" lon="6.02685">
        <ele>821</ele>
        <time>2009-11-01T16:48:27Z</time>
      </trkpt>
      <trkpt lat="45.73966" lon="6.02694">
        <ele>824</ele>
        <time>2009-11-01T16:48:33Z</time>
      </trkpt>
      <trkpt lat="45.73971" lon="6.02701">
        <ele>825</ele>
        <time>2009-11-01T16:48:38Z</time>
      </trkpt>
      <trkpt lat="45.73975" lon="6.0271">
        <ele>825</ele>
        <time>2009-11-01T16:48:43Z</time>
      </trkpt>
      <trkpt lat="45.73978" lon="6.02714">
        <ele>825</ele>
        <time>2009-11-01T16:48:48Z</time>
      </trkpt>
      <trkpt lat="45.7398" lon="6.02718">
        <ele>825</ele>
        <time>2009-11-01T16:48:53Z</time>
      </trkpt>
      <trkpt lat="45.73984" lon="6.02722">
        <ele>825</ele>
        <time>2009-11-01T16:48:59Z</time>
      </trkpt>
      <trkpt lat="45.73992" lon="6.02729">
        <ele>827</ele>
        <time>2009-11-01T16:49:06Z</time>
      </trkpt>
      <trkpt lat="45.73996" lon="6.02733">
        <ele>827</ele>
        <time>2009-11-01T16:49:11Z</time>
      </trkpt>
      <trkpt lat="45.74001" lon="6.0274">
        <ele>827</ele>
        <time>2009-11-01T16:49:16Z</time>
      </trkpt>
      <trkpt lat="45.74003" lon="6.02746">
        <ele>827</ele>
        <time>2009-11-01T16:49:21Z</time>
      </trkpt>
      <trkpt lat="45.74006" lon="6.02752">
        <ele>827</ele>
        <time>2009-11-01T16:49:26Z</time>
      </trkpt>
      <trkpt lat="45.7401" lon="6.02762">
        <ele>827</ele>
        <time>2009-11-01T16:49:31Z</time>
      </trkpt>
      <trkpt lat="45.74017" lon="6.02772">
        <ele>827</ele>
        <time>2009-11-01T16:49:36Z</time>
      </trkpt>
      <trkpt lat="45.7402" lon="6.02781">
        <ele>826</ele>
        <time>2009-11-01T16:49:41Z</time>
      </trkpt>
      <trkpt lat="45.7402" lon="6.02789">
        <ele>825</ele>
        <time>2009-11-01T16:49:46Z</time>
      </trkpt>
      <trkpt lat="45.74024" lon="6.02794">
        <ele>824</ele>
        <time>2009-11-01T16:49:51Z</time>
      </trkpt>
      <trkpt lat="45.74026" lon="6.02801">
        <ele>824</ele>
        <time>2009-11-01T16:49:57Z</time>
      </trkpt>
      <trkpt lat="45.74028" lon="6.02808">
        <ele>824</ele>
        <time>2009-11-01T16:50:02Z</time>
      </trkpt>
      <trkpt lat="45.74031" lon="6.02813">
        <ele>824</ele>
        <time>2009-11-01T16:50:08Z</time>
      </trkpt>
      <trkpt lat="45.74036" lon="6.02817">
        <ele>826</ele>
        <time>2009-11-01T16:50:14Z</time>
      </trkpt>
      <trkpt lat="45.7404" lon="6.02821">
        <ele>828</ele>
        <time>2009-11-01T16:50:20Z</time>
      </trkpt>
      <trkpt lat="45.74046" lon="6.02824">
        <ele>829</ele>
        <time>2009-11-01T16:50:25Z</time>
      </trkpt>
      <trkpt lat="45.74051" lon="6.02826">
        <ele>832</ele>
        <time>2009-11-01T16:50:30Z</time>
      </trkpt>
      <trkpt lat="45.74058" lon="6.0283">
        <ele>834</ele>
        <time>2009-11-01T16:50:35Z</time>
      </trkpt>
      <trkpt lat="45.74064" lon="6.02833">
        <ele>836</ele>
        <time>2009-11-01T16:50:41Z</time>
      </trkpt>
      <trkpt lat="45.74072" lon="6.02837">
        <ele>839</ele>
        <time>2009-11-01T16:50:47Z</time>
      </trkpt>
      <trkpt lat="45.74076" lon="6.02839">
        <ele>840</ele>
        <time>2009-11-01T16:50:53Z</time>
      </trkpt>
      <trkpt lat="45.74085" lon="6.02842">
        <ele>842</ele>
        <time>2009-11-01T16:50:58Z</time>
      </trkpt>
      <trkpt lat="45.74092" lon="6.02845">
        <ele>843</ele>
        <time>2009-11-01T16:51:05Z</time>
      </trkpt>
      <trkpt lat="45.741" lon="6.02849">
        <ele>845</ele>
        <time>2009-11-01T16:51:10Z</time>
      </trkpt>
      <trkpt lat="45.74104" lon="6.02859">
        <ele>845</ele>
        <time>2009-11-01T16:51:15Z</time>
      </trkpt>
      <trkpt lat="45.74109" lon="6.02867">
        <ele>845</ele>
        <time>2009-11-01T16:51:21Z</time>
      </trkpt>
      <trkpt lat="45.74112" lon="6.02875">
        <ele>845</ele>
        <time>2009-11-01T16:51:26Z</time>
      </trkpt>
      <trkpt lat="45.74117" lon="6.02886">
        <ele>845</ele>
        <time>2009-11-01T16:51:32Z</time>
      </trkpt>
      <trkpt lat="45.74121" lon="6.02897">
        <ele>845</ele>
        <time>2009-11-01T16:51:37Z</time>
      </trkpt>
      <trkpt lat="45.74127" lon="6.02913">
        <ele>845</ele>
        <time>2009-11-01T16:51:43Z</time>
      </trkpt>
      <trkpt lat="45.74127" lon="6.02925">
        <ele>845</ele>
        <time>2009-11-01T16:51:48Z</time>
      </trkpt>
      <trkpt lat="45.74123" lon="6.02933">
        <ele>845</ele>
        <time>2009-11-01T16:51:53Z</time>
      </trkpt>
      <trkpt lat="45.74118" lon="6.02938">
        <ele>845</ele>
        <time>2009-11-01T16:51:58Z</time>
      </trkpt>
      <trkpt lat="45.74113" lon="6.02941">
        <ele>845</ele>
        <time>2009-11-01T16:52:03Z</time>
      </trkpt>
      <trkpt lat="45.74108" lon="6.02935">
        <ele>844</ele>
        <time>2009-11-01T16:52:08Z</time>
      </trkpt>
      <trkpt lat="45.74103" lon="6.02928">
        <ele>844</ele>
        <time>2009-11-01T16:52:13Z</time>
      </trkpt>
      <trkpt lat="45.741" lon="6.02919">
        <ele>844</ele>
        <time>2009-11-01T16:52:18Z</time>
      </trkpt>
      <trkpt lat="45.74095" lon="6.02909">
        <ele>843</ele>
        <time>2009-11-01T16:52:23Z</time>
      </trkpt>
      <trkpt lat="45.74094" lon="6.02897">
        <ele>843</ele>
        <time>2009-11-01T16:52:28Z</time>
      </trkpt>
      <trkpt lat="45.74089" lon="6.02887">
        <ele>843</ele>
        <time>2009-11-01T16:52:33Z</time>
      </trkpt>
      <trkpt lat="45.74082" lon="6.02885">
        <ele>843</ele>
        <time>2009-11-01T16:52:39Z</time>
      </trkpt>
      <trkpt lat="45.74074" lon="6.02884">
        <ele>843</ele>
        <time>2009-11-01T16:52:44Z</time>
      </trkpt>
      <trkpt lat="45.74066" lon="6.02882">
        <ele>843</ele>
        <time>2009-11-01T16:52:49Z</time>
      </trkpt>
      <trkpt lat="45.7406" lon="6.02881">
        <ele>842</ele>
        <time>2009-11-01T16:52:54Z</time>
      </trkpt>
      <trkpt lat="45.74055" lon="6.02883">
        <ele>842</ele>
        <time>2009-11-01T16:53:00Z</time>
      </trkpt>
      <trkpt lat="45.74051" lon="6.02884">
        <ele>842</ele>
        <time>2009-11-01T16:53:05Z</time>
      </trkpt>
      <trkpt lat="45.74044" lon="6.02886">
        <ele>842</ele>
        <time>2009-11-01T16:53:11Z</time>
      </trkpt>
      <trkpt lat="45.74038" lon="6.02889">
        <ele>842</ele>
        <time>2009-11-01T16:53:16Z</time>
      </trkpt>
      <trkpt lat="45.74033" lon="6.02892">
        <ele>842</ele>
        <time>2009-11-01T16:53:21Z</time>
      </trkpt>
      <trkpt lat="45.74028" lon="6.02897">
        <ele>842</ele>
        <time>2009-11-01T16:53:27Z</time>
      </trkpt>
      <trkpt lat="45.74017" lon="6.02891">
        <ele>842</ele>
        <time>2009-11-01T16:53:32Z</time>
      </trkpt>
      <trkpt lat="45.74012" lon="6.02891">
        <ele>844</ele>
        <time>2009-11-01T16:53:37Z</time>
      </trkpt>
      <trkpt lat="45.74008" lon="6.02895">
        <ele>849</ele>
        <time>2009-11-01T16:53:45Z</time>
      </trkpt>
      <trkpt lat="45.74003" lon="6.02894">
        <ele>852</ele>
        <time>2009-11-01T16:53:51Z</time>
      </trkpt>
      <trkpt lat="45.73998" lon="6.02892">
        <ele>853</ele>
        <time>2009-11-01T16:53:56Z</time>
      </trkpt>
      <trkpt lat="45.73987" lon="6.02886">
        <ele>854</ele>
        <time>2009-11-01T16:54:01Z</time>
      </trkpt>
      <trkpt lat="45.7398" lon="6.02878">
        <ele>854</ele>
        <time>2009-11-01T16:54:06Z</time>
      </trkpt>
      <trkpt lat="45.73973" lon="6.02866">
        <ele>856</ele>
        <time>2009-11-01T16:54:11Z</time>
      </trkpt>
      <trkpt lat="45.73964" lon="6.02858">
        <ele>856</ele>
        <time>2009-11-01T16:54:16Z</time>
      </trkpt>
      <trkpt lat="45.7396" lon="6.02856">
        <ele>856</ele>
        <time>2009-11-01T16:54:22Z</time>
      </trkpt>
      <trkpt lat="45.73955" lon="6.02857">
        <ele>855</ele>
        <time>2009-11-01T16:54:27Z</time>
      </trkpt>
      <trkpt lat="45.73947" lon="6.02856">
        <ele>855</ele>
        <time>2009-11-01T16:54:32Z</time>
      </trkpt>
      <trkpt lat="45.73944" lon="6.02854">
        <ele>855</ele>
        <time>2009-11-01T16:54:37Z</time>
      </trkpt>
      <trkpt lat="45.73936" lon="6.0285">
        <ele>855</ele>
        <time>2009-11-01T16:54:43Z</time>
      </trkpt>
      <trkpt lat="45.73931" lon="6.02846">
        <ele>858</ele>
        <time>2009-11-01T16:54:48Z</time>
      </trkpt>
      <trkpt lat="45.73928" lon="6.02844">
        <ele>860</ele>
        <time>2009-11-01T16:54:53Z</time>
      </trkpt>
      <trkpt lat="45.73924" lon="6.02839">
        <ele>862</ele>
        <time>2009-11-01T16:54:59Z</time>
      </trkpt>
      <trkpt lat="45.73917" lon="6.02835">
        <ele>864</ele>
        <time>2009-11-01T16:55:04Z</time>
      </trkpt>
      <trkpt lat="45.73911" lon="6.0283">
        <ele>865</ele>
        <time>2009-11-01T16:55:09Z</time>
      </trkpt>
      <trkpt lat="45.73906" lon="6.02828">
        <ele>865</ele>
        <time>2009-11-01T16:55:14Z</time>
      </trkpt>
      <trkpt lat="45.73904" lon="6.02829">
        <ele>865</ele>
        <time>2009-11-01T16:55:19Z</time>
      </trkpt>
      <trkpt lat="45.73901" lon="6.0283">
        <ele>868</ele>
        <time>2009-11-01T16:55:25Z</time>
      </trkpt>
      <trkpt lat="45.73899" lon="6.02827">
        <ele>870</ele>
        <time>2009-11-01T16:55:30Z</time>
      </trkpt>
      <trkpt lat="45.73895" lon="6.0283">
        <ele>872</ele>
        <time>2009-11-01T16:55:36Z</time>
      </trkpt>
      <trkpt lat="45.7389" lon="6.02831">
        <ele>872</ele>
        <time>2009-11-01T16:55:41Z</time>
      </trkpt>
      <trkpt lat="45.73889" lon="6.02826">
        <ele>876</ele>
        <time>2009-11-01T16:55:47Z</time>
      </trkpt>
      <trkpt lat="45.73885" lon="6.02828">
        <ele>880</ele>
        <time>2009-11-01T16:55:52Z</time>
      </trkpt>
      <trkpt lat="45.7388" lon="6.02828">
        <ele>880</ele>
        <time>2009-11-01T16:55:57Z</time>
      </trkpt>
      <trkpt lat="45.73881" lon="6.02827">
        <ele>885</ele>
        <time>2009-11-01T16:56:06Z</time>
      </trkpt>
      <trkpt lat="45.73883" lon="6.02825">
        <ele>890</ele>
        <time>2009-11-01T16:56:12Z</time>
      </trkpt>
      <trkpt lat="45.73877" lon="6.02814">
        <ele>891</ele>
        <time>2009-11-01T16:56:17Z</time>
      </trkpt>
      <trkpt lat="45.73864" lon="6.02802">
        <ele>891</ele>
        <time>2009-11-01T16:56:23Z</time>
      </trkpt>
      <trkpt lat="45.7385" lon="6.02787">
        <ele>891</ele>
        <time>2009-11-01T16:56:28Z</time>
      </trkpt>
      <trkpt lat="45.73843" lon="6.0278">
        <ele>892</ele>
        <time>2009-11-01T16:56:34Z</time>
      </trkpt>
      <trkpt lat="45.73835" lon="6.02773">
        <ele>892</ele>
        <time>2009-11-01T16:56:39Z</time>
      </trkpt>
      <trkpt lat="45.73831" lon="6.02764">
        <ele>893</ele>
        <time>2009-11-01T16:56:44Z</time>
      </trkpt>
      <trkpt lat="45.73826" lon="6.02761">
        <ele>894</ele>
        <time>2009-11-01T16:56:50Z</time>
      </trkpt>
      <trkpt lat="45.73819" lon="6.02756">
        <ele>894</ele>
        <time>2009-11-01T16:56:55Z</time>
      </trkpt>
      <trkpt lat="45.73813" lon="6.02749">
        <ele>894</ele>
        <time>2009-11-01T16:57:00Z</time>
      </trkpt>
      <trkpt lat="45.73805" lon="6.02742">
        <ele>894</ele>
        <time>2009-11-01T16:57:05Z</time>
      </trkpt>
      <trkpt lat="45.73798" lon="6.02737">
        <ele>894</ele>
        <time>2009-11-01T16:57:10Z</time>
      </trkpt>
      <trkpt lat="45.73793" lon="6.0273">
        <ele>894</ele>
        <time>2009-11-01T16:57:15Z</time>
      </trkpt>
      <trkpt lat="45.7379" lon="6.02724">
        <ele>894</ele>
        <time>2009-11-01T16:57:20Z</time>
      </trkpt>
      <trkpt lat="45.73784" lon="6.02717">
        <ele>896</ele>
        <time>2009-11-01T16:57:25Z</time>
      </trkpt>
      <trkpt lat="45.7378" lon="6.02716">
        <ele>897</ele>
        <time>2009-11-01T16:57:31Z</time>
      </trkpt>
      <trkpt lat="45.73778" lon="6.02716">
        <ele>899</ele>
        <time>2009-11-01T16:57:38Z</time>
      </trkpt>
      <trkpt lat="45.7377" lon="6.02711">
        <ele>900</ele>
        <time>2009-11-01T16:57:43Z</time>
      </trkpt>
      <trkpt lat="45.73762" lon="6.02706">
        <ele>900</ele>
        <time>2009-11-01T16:57:48Z</time>
      </trkpt>
      <trkpt lat="45.73753" lon="6.02699">
        <ele>900</ele>
        <time>2009-11-01T16:57:53Z</time>
      </trkpt>
      <trkpt lat="45.73747" lon="6.02692">
        <ele>900</ele>
        <time>2009-11-01T16:57:58Z</time>
      </trkpt>
      <trkpt lat="45.73741" lon="6.02685">
        <ele>900</ele>
        <time>2009-11-01T16:58:03Z</time>
      </trkpt>
      <trkpt lat="45.73736" lon="6.02679">
        <ele>900</ele>
        <time>2009-11-01T16:58:08Z</time>
      </trkpt>
      <trkpt lat="45.73726" lon="6.02673">
        <ele>900</ele>
        <time>2009-11-01T16:58:13Z</time>
      </trkpt>
      <trkpt lat="45.73718" lon="6.02664">
        <ele>896</ele>
        <time>2009-11-01T16:58:19Z</time>
      </trkpt>
      <trkpt lat="45.73713" lon="6.02661">
        <ele>896</ele>
        <time>2009-11-01T16:58:24Z</time>
      </trkpt>
      <trkpt lat="45.7371" lon="6.02658">
        <ele>896</ele>
        <time>2009-11-01T16:58:30Z</time>
      </trkpt>
      <trkpt lat="45.73705" lon="6.02655">
        <ele>895</ele>
        <time>2009-11-01T16:58:36Z</time>
      </trkpt>
      <trkpt lat="45.73699" lon="6.02649">
        <ele>894</ele>
        <time>2009-11-01T16:58:42Z</time>
      </trkpt>
      <trkpt lat="45.73693" lon="6.02645">
        <ele>894</ele>
        <time>2009-11-01T16:58:48Z</time>
      </trkpt>
      <trkpt lat="45.7369" lon="6.02641">
        <ele>894</ele>
        <time>2009-11-01T16:58:54Z</time>
      </trkpt>
      <trkpt lat="45.73682" lon="6.0264">
        <ele>895</ele>
        <time>2009-11-01T16:59:00Z</time>
      </trkpt>
      <trkpt lat="45.73677" lon="6.02637">
        <ele>895</ele>
        <time>2009-11-01T16:59:05Z</time>
      </trkpt>
      <trkpt lat="45.73673" lon="6.02637">
        <ele>895</ele>
        <time>2009-11-01T16:59:11Z</time>
      </trkpt>
      <trkpt lat="45.7367" lon="6.02636">
        <ele>895</ele>
        <time>2009-11-01T16:59:16Z</time>
      </trkpt>
      <trkpt lat="45.73663" lon="6.02637">
        <ele>895</ele>
        <time>2009-11-01T16:59:21Z</time>
      </trkpt>
      <trkpt lat="45.73658" lon="6.02637">
        <ele>894</ele>
        <time>2009-11-01T16:59:27Z</time>
      </trkpt>
      <trkpt lat="45.73652" lon="6.02636">
        <ele>894</ele>
        <time>2009-11-01T16:59:32Z</time>
      </trkpt>
      <trkpt lat="45.73646" lon="6.02635">
        <ele>894</ele>
        <time>2009-11-01T16:59:38Z</time>
      </trkpt>
      <trkpt lat="45.7364" lon="6.02633">
        <ele>899</ele>
        <time>2009-11-01T16:59:43Z</time>
      </trkpt>
      <trkpt lat="45.73634" lon="6.02632">
        <ele>909</ele>
        <time>2009-11-01T16:59:53Z</time>
      </trkpt>
      <trkpt lat="45.73626" lon="6.02631">
        <ele>913</ele>
        <time>2009-11-01T16:59:59Z</time>
      </trkpt>
      <trkpt lat="45.73622" lon="6.02629">
        <ele>913</ele>
        <time>2009-11-01T17:00:04Z</time>
      </trkpt>
      <trkpt lat="45.73617" lon="6.02626">
        <ele>914</ele>
        <time>2009-11-01T17:00:10Z</time>
      </trkpt>
      <trkpt lat="45.73611" lon="6.02624">
        <ele>916</ele>
        <time>2009-11-01T17:00:15Z</time>
      </trkpt>
      <trkpt lat="45.73605" lon="6.02619">
        <ele>917</ele>
        <time>2009-11-01T17:00:21Z</time>
      </trkpt>
      <trkpt lat="45.73603" lon="6.02614">
        <ele>918</ele>
        <time>2009-11-01T17:00:26Z</time>
      </trkpt>
      <trkpt lat="45.73594" lon="6.02603">
        <ele>919</ele>
        <time>2009-11-01T17:00:31Z</time>
      </trkpt>
      <trkpt lat="45.73586" lon="6.02594">
        <ele>919</ele>
        <time>2009-11-01T17:00:37Z</time>
      </trkpt>
      <trkpt lat="45.73578" lon="6.02585">
        <ele>916</ele>
        <time>2009-11-01T17:00:44Z</time>
      </trkpt>
      <trkpt lat="45.73572" lon="6.02579">
        <ele>911</ele>
        <time>2009-11-01T17:00:49Z</time>
      </trkpt>
      <trkpt lat="45.73569" lon="6.02573">
        <ele>906</ele>
        <time>2009-11-01T17:00:54Z</time>
      </trkpt>
      <trkpt lat="45.73567" lon="6.02566">
        <ele>902</ele>
        <time>2009-11-01T17:00:59Z</time>
      </trkpt>
      <trkpt lat="45.7357" lon="6.02558">
        <ele>902</ele>
        <time>2009-11-01T17:01:04Z</time>
      </trkpt>
      <trkpt lat="45.73567" lon="6.02553">
        <ele>906</ele>
        <time>2009-11-01T17:01:10Z</time>
      </trkpt>
      <trkpt lat="45.73564" lon="6.02545">
        <ele>911</ele>
        <time>2009-11-01T17:01:16Z</time>
      </trkpt>
      <trkpt lat="45.73561" lon="6.0254">
        <ele>913</ele>
        <time>2009-11-01T17:01:21Z</time>
      </trkpt>
      <trkpt lat="45.73558" lon="6.02535">
        <ele>915</ele>
        <time>2009-11-01T17:01:27Z</time>
      </trkpt>
      <trkpt lat="45.73551" lon="6.02532">
        <ele>918</ele>
        <time>2009-11-01T17:01:32Z</time>
      </trkpt>
      <trkpt lat="45.73545" lon="6.0253">
        <ele>918</ele>
        <time>2009-11-01T17:01:37Z</time>
      </trkpt>
      <trkpt lat="45.73539" lon="6.02525">
        <ele>918</ele>
        <time>2009-11-01T17:01:43Z</time>
      </trkpt>
      <trkpt lat="45.73537" lon="6.02524">
        <ele>918</ele>
        <time>2009-11-01T17:01:48Z</time>
      </trkpt>
      <trkpt lat="45.73533" lon="6.02521">
        <ele>918</ele>
        <time>2009-11-01T17:01:53Z</time>
      </trkpt>
      <trkpt lat="45.73528" lon="6.02519">
        <ele>918</ele>
        <time>2009-11-01T17:01:58Z</time>
      </trkpt>
      <trkpt lat="45.73521" lon="6.02517">
        <ele>918</ele>
        <time>2009-11-01T17:02:03Z</time>
      </trkpt>
      <trkpt lat="45.73515" lon="6.02516">
        <ele>919</ele>
        <time>2009-11-01T17:02:09Z</time>
      </trkpt>
      <trkpt lat="45.7351" lon="6.02516">
        <ele>919</ele>
        <time>2009-11-01T17:02:14Z</time>
      </trkpt>
      <trkpt lat="45.73504" lon="6.02514">
        <ele>920</ele>
        <time>2009-11-01T17:02:19Z</time>
      </trkpt>
      <trkpt lat="45.73499" lon="6.02516">
        <ele>921</ele>
        <time>2009-11-01T17:02:24Z</time>
      </trkpt>
      <trkpt lat="45.73493" lon="6.02516">
        <ele>921</ele>
        <time>2009-11-01T17:02:29Z</time>
      </trkpt>
      <trkpt lat="45.73487" lon="6.02517">
        <ele>923</ele>
        <time>2009-11-01T17:02:34Z</time>
      </trkpt>
      <trkpt lat="45.73483" lon="6.02522">
        <ele>924</ele>
        <time>2009-11-01T17:02:39Z</time>
      </trkpt>
      <trkpt lat="45.73478" lon="6.02525">
        <ele>924</ele>
        <time>2009-11-01T17:02:44Z</time>
      </trkpt>
      <trkpt lat="45.73471" lon="6.02527">
        <ele>924</ele>
        <time>2009-11-01T17:02:50Z</time>
      </trkpt>
      <trkpt lat="45.73464" lon="6.02525">
        <ele>924</ele>
        <time>2009-11-01T17:02:55Z</time>
      </trkpt>
      <trkpt lat="45.73456" lon="6.02523">
        <ele>924</ele>
        <time>2009-11-01T17:03:01Z</time>
      </trkpt>
      <trkpt lat="45.7345" lon="6.02521">
        <ele>924</ele>
        <time>2009-11-01T17:03:06Z</time>
      </trkpt>
      <trkpt lat="45.73445" lon="6.02522">
        <ele>924</ele>
        <time>2009-11-01T17:03:11Z</time>
      </trkpt>
      <trkpt lat="45.7344" lon="6.02524">
        <ele>924</ele>
        <time>2009-11-01T17:03:17Z</time>
      </trkpt>
      <trkpt lat="45.73438" lon="6.02532">
        <ele>924</ele>
        <time>2009-11-01T17:03:25Z</time>
      </trkpt>
      <trkpt lat="45.73434" lon="6.02537">
        <ele>923</ele>
        <time>2009-11-01T17:03:30Z</time>
      </trkpt>
      <trkpt lat="45.7343" lon="6.02541">
        <ele>923</ele>
        <time>2009-11-01T17:03:35Z</time>
      </trkpt>
      <trkpt lat="45.73423" lon="6.02543">
        <ele>923</ele>
        <time>2009-11-01T17:03:41Z</time>
      </trkpt>
      <trkpt lat="45.73417" lon="6.02543">
        <ele>923</ele>
        <time>2009-11-01T17:03:46Z</time>
      </trkpt>
      <trkpt lat="45.73413" lon="6.0254">
        <ele>923</ele>
        <time>2009-11-01T17:03:53Z</time>
      </trkpt>
      <trkpt lat="45.73409" lon="6.02536">
        <ele>924</ele>
        <time>2009-11-01T17:03:58Z</time>
      </trkpt>
      <trkpt lat="45.73402" lon="6.02532">
        <ele>929</ele>
        <time>2009-11-01T17:04:03Z</time>
      </trkpt>
      <trkpt lat="45.73396" lon="6.0253">
        <ele>932</ele>
        <time>2009-11-01T17:04:09Z</time>
      </trkpt>
      <trkpt lat="45.7339" lon="6.02524">
        <ele>934</ele>
        <time>2009-11-01T17:04:14Z</time>
      </trkpt>
      <trkpt lat="45.73385" lon="6.02521">
        <ele>936</ele>
        <time>2009-11-01T17:04:20Z</time>
      </trkpt>
      <trkpt lat="45.73381" lon="6.02519">
        <ele>937</ele>
        <time>2009-11-01T17:04:26Z</time>
      </trkpt>
      <trkpt lat="45.73375" lon="6.02517">
        <ele>938</ele>
        <time>2009-11-01T17:04:31Z</time>
      </trkpt>
      <trkpt lat="45.73368" lon="6.02513">
        <ele>940</ele>
        <time>2009-11-01T17:04:36Z</time>
      </trkpt>
      <trkpt lat="45.73368" lon="6.02509">
        <ele>941</ele>
        <time>2009-11-01T17:04:41Z</time>
      </trkpt>
      <trkpt lat="45.73362" lon="6.02504">
        <ele>942</ele>
        <time>2009-11-01T17:04:48Z</time>
      </trkpt>
      <trkpt lat="45.73356" lon="6.02504">
        <ele>942</ele>
        <time>2009-11-01T17:04:53Z</time>
      </trkpt>
      <trkpt lat="45.73347" lon="6.02503">
        <ele>942</ele>
        <time>2009-11-01T17:04:59Z</time>
      </trkpt>
      <trkpt lat="45.73343" lon="6.02505">
        <ele>941</ele>
        <time>2009-11-01T17:05:04Z</time>
      </trkpt>
      <trkpt lat="45.73337" lon="6.02506">
        <ele>940</ele>
        <time>2009-11-01T17:05:09Z</time>
      </trkpt>
      <trkpt lat="45.73331" lon="6.02505">
        <ele>939</ele>
        <time>2009-11-01T17:05:14Z</time>
      </trkpt>
      <trkpt lat="45.73326" lon="6.0251">
        <ele>939</ele>
        <time>2009-11-01T17:05:20Z</time>
      </trkpt>
      <trkpt lat="45.73319" lon="6.02512">
        <ele>937</ele>
        <time>2009-11-01T17:05:26Z</time>
      </trkpt>
      <trkpt lat="45.73314" lon="6.02514">
        <ele>937</ele>
        <time>2009-11-01T17:05:31Z</time>
      </trkpt>
      <trkpt lat="45.7331" lon="6.02516">
        <ele>937</ele>
        <time>2009-11-01T17:05:36Z</time>
      </trkpt>
      <trkpt lat="45.73304" lon="6.02518">
        <ele>937</ele>
        <time>2009-11-01T17:05:41Z</time>
      </trkpt>
      <trkpt lat="45.733" lon="6.02523">
        <ele>937</ele>
        <time>2009-11-01T17:05:48Z</time>
      </trkpt>
      <trkpt lat="45.73295" lon="6.02529">
        <ele>937</ele>
        <time>2009-11-01T17:05:54Z</time>
      </trkpt>
      <trkpt lat="45.7329" lon="6.02534">
        <ele>937</ele>
        <time>2009-11-01T17:06:00Z</time>
      </trkpt>
      <trkpt lat="45.73283" lon="6.02535">
        <ele>937</ele>
        <time>2009-11-01T17:06:05Z</time>
      </trkpt>
      <trkpt lat="45.73273" lon="6.0253">
        <ele>937</ele>
        <time>2009-11-01T17:06:11Z</time>
      </trkpt>
      <trkpt lat="45.73267" lon="6.02529">
        <ele>937</ele>
        <time>2009-11-01T17:06:17Z</time>
      </trkpt>
      <trkpt lat="45.73261" lon="6.02529">
        <ele>938</ele>
        <time>2009-11-01T17:06:22Z</time>
      </trkpt>
      <trkpt lat="45.73256" lon="6.02529">
        <ele>939</ele>
        <time>2009-11-01T17:06:27Z</time>
      </trkpt>
      <trkpt lat="45.73253" lon="6.02531">
        <ele>943</ele>
        <time>2009-11-01T17:06:32Z</time>
      </trkpt>
      <trkpt lat="45.73247" lon="6.0253">
        <ele>947</ele>
        <time>2009-11-01T17:06:37Z</time>
      </trkpt>
      <trkpt lat="45.73243" lon="6.02532">
        <ele>949</ele>
        <time>2009-11-01T17:06:42Z</time>
      </trkpt>
      <trkpt lat="45.73238" lon="6.02536">
        <ele>949</ele>
        <time>2009-11-01T17:06:48Z</time>
      </trkpt>
      <trkpt lat="45.73232" lon="6.02538">
        <ele>949</ele>
        <time>2009-11-01T17:06:53Z</time>
      </trkpt>
      <trkpt lat="45.73225" lon="6.0254">
        <ele>949</ele>
        <time>2009-11-01T17:06:59Z</time>
      </trkpt>
      <trkpt lat="45.73219" lon="6.02542">
        <ele>949</ele>
        <time>2009-11-01T17:07:04Z</time>
      </trkpt>
      <trkpt lat="45.73215" lon="6.02546">
        <ele>949</ele>
        <time>2009-11-01T17:07:10Z</time>
      </trkpt>
      <trkpt lat="45.73209" lon="6.02548">
        <ele>949</ele>
        <time>2009-11-01T17:07:15Z</time>
      </trkpt>
      <trkpt lat="45.73205" lon="6.02553">
        <ele>948</ele>
        <time>2009-11-01T17:07:20Z</time>
      </trkpt>
      <trkpt lat="45.732" lon="6.02561">
        <ele>947</ele>
        <time>2009-11-01T17:07:26Z</time>
      </trkpt>
      <trkpt lat="45.73194" lon="6.02564">
        <ele>947</ele>
        <time>2009-11-01T17:07:32Z</time>
      </trkpt>
      <trkpt lat="45.73189" lon="6.02567">
        <ele>947</ele>
        <time>2009-11-01T17:07:38Z</time>
      </trkpt>
      <trkpt lat="45.73185" lon="6.02572">
        <ele>949</ele>
        <time>2009-11-01T17:07:43Z</time>
      </trkpt>
      <trkpt lat="45.73182" lon="6.02578">
        <ele>949</ele>
        <time>2009-11-01T17:07:48Z</time>
      </trkpt>
      <trkpt lat="45.73176" lon="6.02581">
        <ele>949</ele>
        <time>2009-11-01T17:07:53Z</time>
      </trkpt>
      <trkpt lat="45.73173" lon="6.02582">
        <ele>949</ele>
        <time>2009-11-01T17:07:58Z</time>
      </trkpt>
      <trkpt lat="45.7317" lon="6.02584">
        <ele>951</ele>
        <time>2009-11-01T17:08:03Z</time>
      </trkpt>
      <trkpt lat="45.73165" lon="6.02584">
        <ele>952</ele>
        <time>2009-11-01T17:08:09Z</time>
      </trkpt>
      <trkpt lat="45.7316" lon="6.02584">
        <ele>952</ele>
        <time>2009-11-01T17:08:15Z</time>
      </trkpt>
      <trkpt lat="45.73154" lon="6.02588">
        <ele>952</ele>
        <time>2009-11-01T17:08:21Z</time>
      </trkpt>
      <trkpt lat="45.7315" lon="6.0259">
        <ele>952</ele>
        <time>2009-11-01T17:08:27Z</time>
      </trkpt>
      <trkpt lat="45.73146" lon="6.02593">
        <ele>952</ele>
        <time>2009-11-01T17:08:32Z</time>
      </trkpt>
      <trkpt lat="45.73143" lon="6.02595">
        <ele>953</ele>
        <time>2009-11-01T17:08:37Z</time>
      </trkpt>
      <trkpt lat="45.73139" lon="6.02599">
        <ele>954</ele>
        <time>2009-11-01T17:08:43Z</time>
      </trkpt>
      <trkpt lat="45.73137" lon="6.026">
        <ele>955</ele>
        <time>2009-11-01T17:08:48Z</time>
      </trkpt>
      <trkpt lat="45.73133" lon="6.02599">
        <ele>957</ele>
        <time>2009-11-01T17:08:53Z</time>
      </trkpt>
      <trkpt lat="45.73129" lon="6.02597">
        <ele>960</ele>
        <time>2009-11-01T17:08:59Z</time>
      </trkpt>
      <trkpt lat="45.73124" lon="6.02597">
        <ele>962</ele>
        <time>2009-11-01T17:09:04Z</time>
      </trkpt>
      <trkpt lat="45.73118" lon="6.02597">
        <ele>962</ele>
        <time>2009-11-01T17:09:09Z</time>
      </trkpt>
      <trkpt lat="45.7311" lon="6.02597">
        <ele>962</ele>
        <time>2009-11-01T17:09:15Z</time>
      </trkpt>
      <trkpt lat="45.73106" lon="6.02598">
        <ele>964</ele>
        <time>2009-11-01T17:09:20Z</time>
      </trkpt>
      <trkpt lat="45.73099" lon="6.02597">
        <ele>965</ele>
        <time>2009-11-01T17:09:27Z</time>
      </trkpt>
      <trkpt lat="45.73094" lon="6.02593">
        <ele>968</ele>
        <time>2009-11-01T17:09:33Z</time>
      </trkpt>
      <trkpt lat="45.73093" lon="6.02587">
        <ele>973</ele>
        <time>2009-11-01T17:09:38Z</time>
      </trkpt>
      <trkpt lat="45.7309" lon="6.02584">
        <ele>979</ele>
        <time>2009-11-01T17:09:44Z</time>
      </trkpt>
      <trkpt lat="45.73084" lon="6.0258">
        <ele>981</ele>
        <time>2009-11-01T17:09:50Z</time>
      </trkpt>
      <trkpt lat="45.73066" lon="6.02564">
        <ele>983</ele>
        <time>2009-11-01T17:09:55Z</time>
      </trkpt>
      <trkpt lat="45.73057" lon="6.02555">
        <ele>987</ele>
        <time>2009-11-01T17:10:01Z</time>
      </trkpt>
      <trkpt lat="45.73051" lon="6.0255">
        <ele>991</ele>
        <time>2009-11-01T17:10:08Z</time>
      </trkpt>
      <trkpt lat="45.73048" lon="6.02541">
        <ele>995</ele>
        <time>2009-11-01T17:10:13Z</time>
      </trkpt>
      <trkpt lat="45.73042" lon="6.02534">
        <ele>999</ele>
        <time>2009-11-01T17:10:19Z</time>
      </trkpt>
      <trkpt lat="45.73036" lon="6.02531">
        <ele>1000</ele>
        <time>2009-11-01T17:10:24Z</time>
      </trkpt>
      <trkpt lat="45.7303" lon="6.02527">
        <ele>1000</ele>
        <time>2009-11-01T17:10:29Z</time>
      </trkpt>
      <trkpt lat="45.73025" lon="6.02526">
        <ele>1000</ele>
        <time>2009-11-01T17:10:34Z</time>
      </trkpt>
      <trkpt lat="45.73018" lon="6.02524">
        <ele>999</ele>
        <time>2009-11-01T17:10:39Z</time>
      </trkpt>
      <trkpt lat="45.73009" lon="6.02522">
        <ele>997</ele>
        <time>2009-11-01T17:10:44Z</time>
      </trkpt>
      <trkpt lat="45.73002" lon="6.02521">
        <ele>995</ele>
        <time>2009-11-01T17:10:49Z</time>
      </trkpt>
      <trkpt lat="45.72998" lon="6.02521">
        <ele>995</ele>
        <time>2009-11-01T17:10:54Z</time>
      </trkpt>
      <trkpt lat="45.72991" lon="6.02524">
        <ele>995</ele>
        <time>2009-11-01T17:11:00Z</time>
      </trkpt>
      <trkpt lat="45.72986" lon="6.0252">
        <ele>994</ele>
        <time>2009-11-01T17:11:05Z</time>
      </trkpt>
      <trkpt lat="45.72982" lon="6.02518">
        <ele>994</ele>
        <time>2009-11-01T17:11:11Z</time>
      </trkpt>
      <trkpt lat="45.72979" lon="6.02512">
        <ele>994</ele>
        <time>2009-11-01T17:11:17Z</time>
      </trkpt>
      <trkpt lat="45.72968" lon="6.02507">
        <ele>994</ele>
        <time>2009-11-01T17:11:23Z</time>
      </trkpt>
      <trkpt lat="45.72964" lon="6.02504">
        <ele>994</ele>
        <time>2009-11-01T17:11:30Z</time>
      </trkpt>
      <trkpt lat="45.72957" lon="6.02504">
        <ele>994</ele>
        <time>2009-11-01T17:11:37Z</time>
      </trkpt>
      <trkpt lat="45.72952" lon="6.02505">
        <ele>994</ele>
        <time>2009-11-01T17:11:43Z</time>
      </trkpt>
      <trkpt lat="45.72948" lon="6.02504">
        <ele>994</ele>
        <time>2009-11-01T17:11:48Z</time>
      </trkpt>
      <trkpt lat="45.72943" lon="6.02507">
        <ele>994</ele>
        <time>2009-11-01T17:11:55Z</time>
      </trkpt>
      <trkpt lat="45.72939" lon="6.02505">
        <ele>994</ele>
        <time>2009-11-01T17:12:00Z</time>
      </trkpt>
      <trkpt lat="45.72933" lon="6.025">
        <ele>994</ele>
        <time>2009-11-01T17:12:05Z</time>
      </trkpt>
      <trkpt lat="45.72928" lon="6.02497">
        <ele>995</ele>
        <time>2009-11-01T17:12:11Z</time>
      </trkpt>
      <trkpt lat="45.72922" lon="6.02499">
        <ele>996</ele>
        <time>2009-11-01T17:12:16Z</time>
      </trkpt>
      <trkpt lat="45.72919" lon="6.02498">
        <ele>996</ele>
        <time>2009-11-01T17:12:21Z</time>
      </trkpt>
      <trkpt lat="45.72913" lon="6.02496">
        <ele>996</ele>
        <time>2009-11-01T17:12:27Z</time>
      </trkpt>
      <trkpt lat="45.72903" lon="6.0249">
        <ele>996</ele>
        <time>2009-11-01T17:12:32Z</time>
      </trkpt>
      <trkpt lat="45.72897" lon="6.02488">
        <ele>997</ele>
        <time>2009-11-01T17:12:37Z</time>
      </trkpt>
      <trkpt lat="45.72891" lon="6.02488">
        <ele>997</ele>
        <time>2009-11-01T17:12:42Z</time>
      </trkpt>
      <trkpt lat="45.72886" lon="6.0249">
        <ele>998</ele>
        <time>2009-11-01T17:12:48Z</time>
      </trkpt>
      <trkpt lat="45.72881" lon="6.02488">
        <ele>999</ele>
        <time>2009-11-01T17:12:54Z</time>
      </trkpt>
      <trkpt lat="45.72873" lon="6.02486">
        <ele>999</ele>
        <time>2009-11-01T17:13:00Z</time>
      </trkpt>
      <trkpt lat="45.72864" lon="6.02481">
        <ele>1000</ele>
        <time>2009-11-01T17:13:06Z</time>
      </trkpt>
      <trkpt lat="45.72858" lon="6.02481">
        <ele>1001</ele>
        <time>2009-11-01T17:13:13Z</time>
      </trkpt>
      <trkpt lat="45.72851" lon="6.02471">
        <ele>1003</ele>
        <time>2009-11-01T17:13:18Z</time>
      </trkpt>
      <trkpt lat="45.72843" lon="6.02463">
        <ele>1008</ele>
        <time>2009-11-01T17:13:23Z</time>
      </trkpt>
      <trkpt lat="45.72838" lon="6.02458">
        <ele>1014</ele>
        <time>2009-11-01T17:13:29Z</time>
      </trkpt>
      <trkpt lat="45.72831" lon="6.02454">
        <ele>1017</ele>
        <time>2009-11-01T17:13:34Z</time>
      </trkpt>
      <trkpt lat="45.72825" lon="6.0245">
        <ele>1018</ele>
        <time>2009-11-01T17:13:39Z</time>
      </trkpt>
      <trkpt lat="45.72815" lon="6.02444">
        <ele>1019</ele>
        <time>2009-11-01T17:13:44Z</time>
      </trkpt>
      <trkpt lat="45.7281" lon="6.02443">
        <ele>1019</ele>
        <time>2009-11-01T17:13:50Z</time>
      </trkpt>
      <trkpt lat="45.72804" lon="6.02444">
        <ele>1019</ele>
        <time>2009-11-01T17:13:56Z</time>
      </trkpt>
      <trkpt lat="45.72796" lon="6.02438">
        <ele>1019</ele>
        <time>2009-11-01T17:14:02Z</time>
      </trkpt>
      <trkpt lat="45.72794" lon="6.0244">
        <ele>1019</ele>
        <time>2009-11-01T17:14:07Z</time>
      </trkpt>
      <trkpt lat="45.72785" lon="6.02441">
        <ele>1019</ele>
        <time>2009-11-01T17:14:12Z</time>
      </trkpt>
      <trkpt lat="45.7278" lon="6.02448">
        <ele>1015</ele>
        <time>2009-11-01T17:14:18Z</time>
      </trkpt>
      <trkpt lat="45.72775" lon="6.02451">
        <ele>1012</ele>
        <time>2009-11-01T17:14:23Z</time>
      </trkpt>
      <trkpt lat="45.72769" lon="6.0245">
        <ele>1012</ele>
        <time>2009-11-01T17:14:28Z</time>
      </trkpt>
      <trkpt lat="45.72762" lon="6.02447">
        <ele>1012</ele>
        <time>2009-11-01T17:14:33Z</time>
      </trkpt>
      <trkpt lat="45.72752" lon="6.02442">
        <ele>1012</ele>
        <time>2009-11-01T17:14:38Z</time>
      </trkpt>
      <trkpt lat="45.72747" lon="6.02439">
        <ele>1012</ele>
        <time>2009-11-01T17:14:44Z</time>
      </trkpt>
      <trkpt lat="45.72743" lon="6.02434">
        <ele>1014</ele>
        <time>2009-11-01T17:14:50Z</time>
      </trkpt>
      <trkpt lat="45.72736" lon="6.02428">
        <ele>1015</ele>
        <time>2009-11-01T17:14:56Z</time>
      </trkpt>
      <trkpt lat="45.72732" lon="6.0242">
        <ele>1018</ele>
        <time>2009-11-01T17:15:02Z</time>
      </trkpt>
      <trkpt lat="45.72726" lon="6.02413">
        <ele>1021</ele>
        <time>2009-11-01T17:15:08Z</time>
      </trkpt>
      <trkpt lat="45.72721" lon="6.02408">
        <ele>1024</ele>
        <time>2009-11-01T17:15:13Z</time>
      </trkpt>
      <trkpt lat="45.72717" lon="6.02403">
        <ele>1025</ele>
        <time>2009-11-01T17:15:18Z</time>
      </trkpt>
      <trkpt lat="45.72708" lon="6.02396">
        <ele>1025</ele>
        <time>2009-11-01T17:15:24Z</time>
      </trkpt>
      <trkpt lat="45.72706" lon="6.02387">
        <ele>1025</ele>
        <time>2009-11-01T17:15:29Z</time>
      </trkpt>
      <trkpt lat="45.72703" lon="6.0238">
        <ele>1025</ele>
        <time>2009-11-01T17:15:35Z</time>
      </trkpt>
      <trkpt lat="45.72699" lon="6.02379">
        <ele>1025</ele>
        <time>2009-11-01T17:15:41Z</time>
      </trkpt>
      <trkpt lat="45.72694" lon="6.02379">
        <ele>1025</ele>
        <time>2009-11-01T17:15:47Z</time>
      </trkpt>
      <trkpt lat="45.72691" lon="6.02382">
        <ele>1025</ele>
        <time>2009-11-01T17:15:52Z</time>
      </trkpt>
      <trkpt lat="45.72688" lon="6.02386">
        <ele>1025</ele>
        <time>2009-11-01T17:15:57Z</time>
      </trkpt>
      <trkpt lat="45.72685" lon="6.02387">
        <ele>1025</ele>
        <time>2009-11-01T17:16:02Z</time>
      </trkpt>
      <trkpt lat="45.7268" lon="6.0239">
        <ele>1025</ele>
        <time>2009-11-01T17:16:08Z</time>
      </trkpt>
      <trkpt lat="45.72677" lon="6.02392">
        <ele>1025</ele>
        <time>2009-11-01T17:16:13Z</time>
      </trkpt>
      <trkpt lat="45.72671" lon="6.02394">
        <ele>1025</ele>
        <time>2009-11-01T17:16:19Z</time>
      </trkpt>
      <trkpt lat="45.72661" lon="6.02391">
        <ele>1025</ele>
        <time>2009-11-01T17:16:24Z</time>
      </trkpt>
      <trkpt lat="45.72652" lon="6.02392">
        <ele>1026</ele>
        <time>2009-11-01T17:16:30Z</time>
      </trkpt>
      <trkpt lat="45.72643" lon="6.02395">
        <ele>1026</ele>
        <time>2009-11-01T17:16:36Z</time>
      </trkpt>
      <trkpt lat="45.72636" lon="6.02395">
        <ele>1026</ele>
        <time>2009-11-01T17:16:41Z</time>
      </trkpt>
      <trkpt lat="45.72632" lon="6.02396">
        <ele>1024</ele>
        <time>2009-11-01T17:16:48Z</time>
      </trkpt>
      <trkpt lat="45.72622" lon="6.02391">
        <ele>1024</ele>
        <time>2009-11-01T17:16:54Z</time>
      </trkpt>
      <trkpt lat="45.72606" lon="6.02379">
        <ele>1025</ele>
        <time>2009-11-01T17:16:59Z</time>
      </trkpt>
      <trkpt lat="45.72601" lon="6.02375">
        <ele>1027</ele>
        <time>2009-11-01T17:17:04Z</time>
      </trkpt>
      <trkpt lat="45.72595" lon="6.02369">
        <ele>1028</ele>
        <time>2009-11-01T17:17:09Z</time>
      </trkpt>
      <trkpt lat="45.72595" lon="6.02364">
        <ele>1033</ele>
        <time>2009-11-01T17:17:14Z</time>
      </trkpt>
      <trkpt lat="45.7259" lon="6.02357">
        <ele>1036</ele>
        <time>2009-11-01T17:17:20Z</time>
      </trkpt>
      <trkpt lat="45.72591" lon="6.0235">
        <ele>1040</ele>
        <time>2009-11-01T17:17:26Z</time>
      </trkpt>
      <trkpt lat="45.72593" lon="6.02345">
        <ele>1045</ele>
        <time>2009-11-01T17:17:31Z</time>
      </trkpt>
      <trkpt lat="45.72594" lon="6.02335">
        <ele>1047</ele>
        <time>2009-11-01T17:17:38Z</time>
      </trkpt>
      <trkpt lat="45.72591" lon="6.02327">
        <ele>1049</ele>
        <time>2009-11-01T17:17:43Z</time>
      </trkpt>
      <trkpt lat="45.72581" lon="6.02317">
        <ele>1051</ele>
        <time>2009-11-01T17:17:50Z</time>
      </trkpt>
      <trkpt lat="45.72581" lon="6.02312">
        <ele>1051</ele>
        <time>2009-11-01T17:17:55Z</time>
      </trkpt>
      <trkpt lat="45.72577" lon="6.02305">
        <ele>1053</ele>
        <time>2009-11-01T17:18:00Z</time>
      </trkpt>
      <trkpt lat="45.72572" lon="6.023">
        <ele>1059</ele>
        <time>2009-11-01T17:18:06Z</time>
      </trkpt>
      <trkpt lat="45.72566" lon="6.02292">
        <ele>1063</ele>
        <time>2009-11-01T17:18:11Z</time>
      </trkpt>
      <trkpt lat="45.72557" lon="6.02284">
        <ele>1068</ele>
        <time>2009-11-01T17:18:18Z</time>
      </trkpt>
      <trkpt lat="45.72554" lon="6.02281">
        <ele>1070</ele>
        <time>2009-11-01T17:18:23Z</time>
      </trkpt>
      <trkpt lat="45.72552" lon="6.02282">
        <ele>1070</ele>
        <time>2009-11-01T17:18:33Z</time>
      </trkpt>
      <trkpt lat="45.72547" lon="6.02281">
        <ele>1064</ele>
        <time>2009-11-01T17:18:41Z</time>
      </trkpt>
      <trkpt lat="45.72547" lon="6.02278">
        <ele>1053</ele>
        <time>2009-11-01T17:18:56Z</time>
      </trkpt>
      <trkpt lat="45.72543" lon="6.02278">
        <ele>1049</ele>
        <time>2009-11-01T17:19:02Z</time>
      </trkpt>
      <trkpt lat="45.72545" lon="6.02278">
        <ele>1048</ele>
        <time>2009-11-01T17:19:07Z</time>
      </trkpt>
      <trkpt lat="45.72543" lon="6.0228">
        <ele>1048</ele>
        <time>2009-11-01T17:19:12Z</time>
      </trkpt>
      <trkpt lat="45.72541" lon="6.02281">
        <ele>1046</ele>
        <time>2009-11-01T17:19:18Z</time>
      </trkpt>
      <trkpt lat="45.72538" lon="6.02284">
        <ele>1040</ele>
        <time>2009-11-01T17:19:25Z</time>
      </trkpt>
      <trkpt lat="45.72542" lon="6.02288">
        <ele>1043</ele>
        <time>2009-11-01T17:19:33Z</time>
      </trkpt>
      <trkpt lat="45.72542" lon="6.0229">
        <ele>1051</ele>
        <time>2009-11-01T17:19:45Z</time>
      </trkpt>
      <trkpt lat="45.7254" lon="6.02293">
        <ele>1051</ele>
        <time>2009-11-01T17:19:53Z</time>
      </trkpt>
      <trkpt lat="45.72538" lon="6.02295">
        <ele>1051</ele>
        <time>2009-11-01T17:19:59Z</time>
      </trkpt>
      <trkpt lat="45.72533" lon="6.02297">
        <ele>1050</ele>
        <time>2009-11-01T17:20:05Z</time>
      </trkpt>
      <trkpt lat="45.72535" lon="6.02294">
        <ele>1047</ele>
        <time>2009-11-01T17:20:10Z</time>
      </trkpt>
      <trkpt lat="45.72539" lon="6.02292">
        <ele>1047</ele>
        <time>2009-11-01T17:20:16Z</time>
      </trkpt>
      <trkpt lat="45.72545" lon="6.02289">
        <ele>1049</ele>
        <time>2009-11-01T17:20:22Z</time>
      </trkpt>
      <trkpt lat="45.72544" lon="6.0229">
        <ele>1053</ele>
        <time>2009-11-01T17:20:28Z</time>
      </trkpt>
      <trkpt lat="45.72544" lon="6.0229">
        <ele>1053</ele>
        <time>2009-11-01T17:20:41Z</time>
      </trkpt>
      <trkpt lat="45.72543" lon="6.02291">
        <ele>1053</ele>
        <time>2009-11-01T17:20:47Z</time>
      </trkpt>
      <trkpt lat="45.72543" lon="6.02292">
        <ele>1053</ele>
        <time>2009-11-01T17:20:52Z</time>
      </trkpt>
      <trkpt lat="45.72545" lon="6.02291">
        <ele>1053</ele>
        <time>2009-11-01T17:20:58Z</time>
      </trkpt>
      <trkpt lat="45.72548" lon="6.02288">
        <ele>1055</ele>
        <time>2009-11-01T17:21:04Z</time>
      </trkpt>
      <trkpt lat="45.72557" lon="6.02285">
        <ele>1060</ele>
        <time>2009-11-01T17:21:09Z</time>
      </trkpt>
      <trkpt lat="45.72565" lon="6.02282">
        <ele>1067</ele>
        <time>2009-11-01T17:21:14Z</time>
      </trkpt>
      <trkpt lat="45.72569" lon="6.0228">
        <ele>1076</ele>
        <time>2009-11-01T17:21:20Z</time>
      </trkpt>
      <trkpt lat="45.72569" lon="6.02279">
        <ele>1081</ele>
        <time>2009-11-01T17:21:26Z</time>
      </trkpt>
      <trkpt lat="45.72566" lon="6.02276">
        <ele>1080</ele>
        <time>2009-11-01T17:21:33Z</time>
      </trkpt>
      <trkpt lat="45.72563" lon="6.02274">
        <ele>1074</ele>
        <time>2009-11-01T17:21:39Z</time>
      </trkpt>
      <trkpt lat="45.7256" lon="6.02276">
        <ele>1069</ele>
        <time>2009-11-01T17:21:44Z</time>
      </trkpt>
      <trkpt lat="45.72558" lon="6.02278">
        <ele>1069</ele>
        <time>2009-11-01T17:21:50Z</time>
      </trkpt>
      <trkpt lat="45.72556" lon="6.02281">
        <ele>1068</ele>
        <time>2009-11-01T17:21:57Z</time>
      </trkpt>
      <trkpt lat="45.72552" lon="6.02286">
        <ele>1066</ele>
        <time>2009-11-01T17:22:04Z</time>
      </trkpt>
      <trkpt lat="45.7255" lon="6.02289">
        <ele>1066</ele>
        <time>2009-11-01T17:22:10Z</time>
      </trkpt>
      <trkpt lat="45.72547" lon="6.02291">
        <ele>1066</ele>
        <time>2009-11-01T17:22:16Z</time>
      </trkpt>
      <trkpt lat="45.72545" lon="6.02294">
        <ele>1066</ele>
        <time>2009-11-01T17:22:24Z</time>
      </trkpt>
      <trkpt lat="45.72542" lon="6.02292">
        <ele>1064</ele>
        <time>2009-11-01T17:22:30Z</time>
      </trkpt>
      <trkpt lat="45.72549" lon="6.02289">
        <ele>1061</ele>
        <time>2009-11-01T17:22:37Z</time>
      </trkpt>
      <trkpt lat="45.72554" lon="6.02286">
        <ele>1065</ele>
        <time>2009-11-01T17:22:45Z</time>
      </trkpt>
      <trkpt lat="45.72557" lon="6.02286">
        <ele>1067</ele>
        <time>2009-11-01T17:22:51Z</time>
      </trkpt>
      <trkpt lat="45.72558" lon="6.02285">
        <ele>1071</ele>
        <time>2009-11-01T17:22:58Z</time>
      </trkpt>
      <trkpt lat="45.7256" lon="6.02282">
        <ele>1071</ele>
        <time>2009-11-01T17:23:05Z</time>
      </trkpt>
      <trkpt lat="45.72559" lon="6.02281">
        <ele>1071</ele>
        <time>2009-11-01T17:23:13Z</time>
      </trkpt>
      <trkpt lat="45.72558" lon="6.0228">
        <ele>1071</ele>
        <time>2009-11-01T17:23:22Z</time>
      </trkpt>
      <trkpt lat="45.7256" lon="6.02278">
        <ele>1070</ele>
        <time>2009-11-01T17:23:29Z</time>
      </trkpt>
      <trkpt lat="45.72565" lon="6.02275">
        <ele>1070</ele>
        <time>2009-11-01T17:23:34Z</time>
      </trkpt>
      <trkpt lat="45.72569" lon="6.02274">
        <ele>1073</ele>
        <time>2009-11-01T17:23:39Z</time>
      </trkpt>
      <trkpt lat="45.72575" lon="6.02274">
        <ele>1079</ele>
        <time>2009-11-01T17:23:45Z</time>
      </trkpt>
      <trkpt lat="45.72577" lon="6.02273">
        <ele>1088</ele>
        <time>2009-11-01T17:23:54Z</time>
      </trkpt>
      <trkpt lat="45.72574" lon="6.02272">
        <ele>1089</ele>
        <time>2009-11-01T17:24:03Z</time>
      </trkpt>
      <trkpt lat="45.72578" lon="6.02271">
        <ele>1089</ele>
        <time>2009-11-01T17:24:11Z</time>
      </trkpt>
      <trkpt lat="45.72581" lon="6.02266">
        <ele>1090</ele>
        <time>2009-11-01T17:24:17Z</time>
      </trkpt>
      <trkpt lat="45.72577" lon="6.02262">
        <ele>1092</ele>
        <time>2009-11-01T17:24:23Z</time>
      </trkpt>
      <trkpt lat="45.7257" lon="6.02259">
        <ele>1092</ele>
        <time>2009-11-01T17:24:28Z</time>
      </trkpt>
      <trkpt lat="45.72559" lon="6.02258">
        <ele>1091</ele>
        <time>2009-11-01T17:24:33Z</time>
      </trkpt>
      <trkpt lat="45.7255" lon="6.02261">
        <ele>1083</ele>
        <time>2009-11-01T17:24:38Z</time>
      </trkpt>
      <trkpt lat="45.72546" lon="6.02259">
        <ele>1075</ele>
        <time>2009-11-01T17:24:44Z</time>
      </trkpt>
      <trkpt lat="45.72539" lon="6.02258">
        <ele>1070</ele>
        <time>2009-11-01T17:24:49Z</time>
      </trkpt>
      <trkpt lat="45.72533" lon="6.02257">
        <ele>1064</ele>
        <time>2009-11-01T17:24:55Z</time>
      </trkpt>
      <trkpt lat="45.72531" lon="6.02258">
        <ele>1059</ele>
        <time>2009-11-01T17:25:02Z</time>
      </trkpt>
      <trkpt lat="45.7252" lon="6.02263">
        <ele>1054</ele>
        <time>2009-11-01T17:25:07Z</time>
      </trkpt>
      <trkpt lat="45.72518" lon="6.0227">
        <ele>1048</ele>
        <time>2009-11-01T17:25:13Z</time>
      </trkpt>
      <trkpt lat="45.72518" lon="6.02276">
        <ele>1046</ele>
        <time>2009-11-01T17:25:18Z</time>
      </trkpt>
      <trkpt lat="45.72523" lon="6.02281">
        <ele>1046</ele>
        <time>2009-11-01T17:25:23Z</time>
      </trkpt>
      <trkpt lat="45.72528" lon="6.02282">
        <ele>1046</ele>
        <time>2009-11-01T17:25:28Z</time>
      </trkpt>
      <trkpt lat="45.72531" lon="6.02283">
        <ele>1048</ele>
        <time>2009-11-01T17:25:33Z</time>
      </trkpt>
      <trkpt lat="45.72535" lon="6.02283">
        <ele>1052</ele>
        <time>2009-11-01T17:25:39Z</time>
      </trkpt>
      <trkpt lat="45.72539" lon="6.02282">
        <ele>1056</ele>
        <time>2009-11-01T17:25:45Z</time>
      </trkpt>
      <trkpt lat="45.72539" lon="6.0228">
        <ele>1058</ele>
        <time>2009-11-01T17:25:53Z</time>
      </trkpt>
      <trkpt lat="45.7254" lon="6.02277">
        <ele>1058</ele>
        <time>2009-11-01T17:25:58Z</time>
      </trkpt>
      <trkpt lat="45.72547" lon="6.02274">
        <ele>1058</ele>
        <time>2009-11-01T17:26:03Z</time>
      </trkpt>
      <trkpt lat="45.72555" lon="6.02271">
        <ele>1058</ele>
        <time>2009-11-01T17:26:09Z</time>
      </trkpt>
      <trkpt lat="45.72557" lon="6.0227">
        <ele>1058</ele>
        <time>2009-11-01T17:26:15Z</time>
      </trkpt>
      <trkpt lat="45.72559" lon="6.02268">
        <ele>1058</ele>
        <time>2009-11-01T17:26:20Z</time>
      </trkpt>
      <trkpt lat="45.72561" lon="6.02265">
        <ele>1057</ele>
        <time>2009-11-01T17:26:25Z</time>
      </trkpt>
      <trkpt lat="45.72565" lon="6.02264">
        <ele>1055</ele>
        <time>2009-11-01T17:26:31Z</time>
      </trkpt>
      <trkpt lat="45.72561" lon="6.02264">
        <ele>1055</ele>
        <time>2009-11-01T17:26:36Z</time>
      </trkpt>
      <trkpt lat="45.72556" lon="6.02264">
        <ele>1055</ele>
        <time>2009-11-01T17:26:44Z</time>
      </trkpt>
      <trkpt lat="45.72555" lon="6.02265">
        <ele>1052</ele>
        <time>2009-11-01T17:26:49Z</time>
      </trkpt>
      <trkpt lat="45.72552" lon="6.02265">
        <ele>1046</ele>
        <time>2009-11-01T17:26:55Z</time>
      </trkpt>
      <trkpt lat="45.72553" lon="6.02263">
        <ele>1046</ele>
        <time>2009-11-01T17:27:03Z</time>
      </trkpt>
      <trkpt lat="45.72556" lon="6.02257">
        <ele>1046</ele>
        <time>2009-11-01T17:27:09Z</time>
      </trkpt>
      <trkpt lat="45.72564" lon="6.02248">
        <ele>1051</ele>
        <time>2009-11-01T17:27:14Z</time>
      </trkpt>
      <trkpt lat="45.72566" lon="6.02247">
        <ele>1060</ele>
        <time>2009-11-01T17:27:19Z</time>
      </trkpt>
      <trkpt lat="45.72567" lon="6.02254">
        <ele>1064</ele>
        <time>2009-11-01T17:27:26Z</time>
      </trkpt>
      <trkpt lat="45.72567" lon="6.02261">
        <ele>1064</ele>
        <time>2009-11-01T17:27:31Z</time>
      </trkpt>
      <trkpt lat="45.72559" lon="6.02265">
        <ele>1060</ele>
        <time>2009-11-01T17:27:38Z</time>
      </trkpt>
      <trkpt lat="45.72558" lon="6.0227">
        <ele>1059</ele>
        <time>2009-11-01T17:27:45Z</time>
      </trkpt>
      <trkpt lat="45.72567" lon="6.02282">
        <ele>1059</ele>
        <time>2009-11-01T17:27:50Z</time>
      </trkpt>
      <trkpt lat="45.7258" lon="6.02298">
        <ele>1058</ele>
        <time>2009-11-01T17:27:55Z</time>
      </trkpt>
      <trkpt lat="45.72595" lon="6.02314">
        <ele>1057</ele>
        <time>2009-11-01T17:28:00Z</time>
      </trkpt>
      <trkpt lat="45.72609" lon="6.02348">
        <ele>1052</ele>
        <time>2009-11-01T17:28:05Z</time>
      </trkpt>
      <trkpt lat="45.72628" lon="6.02378">
        <ele>1047</ele>
        <time>2009-11-01T17:28:10Z</time>
      </trkpt>
      <trkpt lat="45.72657" lon="6.0239">
        <ele>1042</ele>
        <time>2009-11-01T17:28:15Z</time>
      </trkpt>
      <trkpt lat="45.72687" lon="6.02375">
        <ele>1036</ele>
        <time>2009-11-01T17:28:20Z</time>
      </trkpt>
      <trkpt lat="45.72716" lon="6.0237">
        <ele>1031</ele>
        <time>2009-11-01T17:28:25Z</time>
      </trkpt>
      <trkpt lat="45.72732" lon="6.02407">
        <ele>1026</ele>
        <time>2009-11-01T17:28:30Z</time>
      </trkpt>
      <trkpt lat="45.72757" lon="6.02434">
        <ele>1021</ele>
        <time>2009-11-01T17:28:35Z</time>
      </trkpt>
      <trkpt lat="45.72789" lon="6.02431">
        <ele>1016</ele>
        <time>2009-11-01T17:28:40Z</time>
      </trkpt>
      <trkpt lat="45.72818" lon="6.02441">
        <ele>1015</ele>
        <time>2009-11-01T17:28:45Z</time>
      </trkpt>
      <trkpt lat="45.72855" lon="6.02461">
        <ele>1013</ele>
        <time>2009-11-01T17:28:50Z</time>
      </trkpt>
      <trkpt lat="45.7289" lon="6.02472">
        <ele>1008</ele>
        <time>2009-11-01T17:28:55Z</time>
      </trkpt>
      <trkpt lat="45.72922" lon="6.02481">
        <ele>1006</ele>
        <time>2009-11-01T17:29:00Z</time>
      </trkpt>
      <trkpt lat="45.72955" lon="6.02487">
        <ele>1004</ele>
        <time>2009-11-01T17:29:05Z</time>
      </trkpt>
      <trkpt lat="45.72984" lon="6.025">
        <ele>1003</ele>
        <time>2009-11-01T17:29:10Z</time>
      </trkpt>
      <trkpt lat="45.73022" lon="6.02511">
        <ele>1000</ele>
        <time>2009-11-01T17:29:15Z</time>
      </trkpt>
      <trkpt lat="45.73053" lon="6.02539">
        <ele>997</ele>
        <time>2009-11-01T17:29:20Z</time>
      </trkpt>
      <trkpt lat="45.73084" lon="6.02565">
        <ele>993</ele>
        <time>2009-11-01T17:29:25Z</time>
      </trkpt>
      <trkpt lat="45.73108" lon="6.02573">
        <ele>988</ele>
        <time>2009-11-01T17:29:30Z</time>
      </trkpt>
      <trkpt lat="45.73127" lon="6.02577">
        <ele>983</ele>
        <time>2009-11-01T17:29:35Z</time>
      </trkpt>
      <trkpt lat="45.73143" lon="6.02578">
        <ele>979</ele>
        <time>2009-11-01T17:29:40Z</time>
      </trkpt>
      <trkpt lat="45.7316" lon="6.02578">
        <ele>976</ele>
        <time>2009-11-01T17:29:45Z</time>
      </trkpt>
      <trkpt lat="45.73181" lon="6.02572">
        <ele>974</ele>
        <time>2009-11-01T17:29:50Z</time>
      </trkpt>
      <trkpt lat="45.73205" lon="6.02547">
        <ele>969</ele>
        <time>2009-11-01T17:29:55Z</time>
      </trkpt>
      <trkpt lat="45.7324" lon="6.02529">
        <ele>964</ele>
        <time>2009-11-01T17:30:00Z</time>
      </trkpt>
      <trkpt lat="45.73279" lon="6.02521">
        <ele>959</ele>
        <time>2009-11-01T17:30:05Z</time>
      </trkpt>
      <trkpt lat="45.73301" lon="6.02506">
        <ele>953</ele>
        <time>2009-11-01T17:30:10Z</time>
      </trkpt>
      <trkpt lat="45.73315" lon="6.025">
        <ele>948</ele>
        <time>2009-11-01T17:30:15Z</time>
      </trkpt>
      <trkpt lat="45.73312" lon="6.02496">
        <ele>947</ele>
        <time>2009-11-01T17:30:20Z</time>
      </trkpt>
      <trkpt lat="45.73315" lon="6.02499">
        <ele>945</ele>
        <time>2009-11-01T17:30:25Z</time>
      </trkpt>
      <trkpt lat="45.73318" lon="6.02501">
        <ele>942</ele>
        <time>2009-11-01T17:30:30Z</time>
      </trkpt>
      <trkpt lat="45.73317" lon="6.02503">
        <ele>942</ele>
        <time>2009-11-01T17:30:38Z</time>
      </trkpt>
      <trkpt lat="45.73307" lon="6.02505">
        <ele>942</ele>
        <time>2009-11-01T17:30:43Z</time>
      </trkpt>
      <trkpt lat="45.7329" lon="6.02503">
        <ele>941</ele>
        <time>2009-11-01T17:30:48Z</time>
      </trkpt>
      <trkpt lat="45.73275" lon="6.02489">
        <ele>940</ele>
        <time>2009-11-01T17:30:53Z</time>
      </trkpt>
      <trkpt lat="45.7326" lon="6.02469">
        <ele>940</ele>
        <time>2009-11-01T17:30:58Z</time>
      </trkpt>
      <trkpt lat="45.73231" lon="6.02446">
        <ele>941</ele>
        <time>2009-11-01T17:31:03Z</time>
      </trkpt>
      <trkpt lat="45.73195" lon="6.02446">
        <ele>941</ele>
        <time>2009-11-01T17:31:08Z</time>
      </trkpt>
      <trkpt lat="45.73167" lon="6.02459">
        <ele>941</ele>
        <time>2009-11-01T17:31:13Z</time>
      </trkpt>
      <trkpt lat="45.73135" lon="6.02469">
        <ele>939</ele>
        <time>2009-11-01T17:31:18Z</time>
      </trkpt>
      <trkpt lat="45.73107" lon="6.02462">
        <ele>935</ele>
        <time>2009-11-01T17:31:23Z</time>
      </trkpt>
      <trkpt lat="45.73077" lon="6.02437">
        <ele>931</ele>
        <time>2009-11-01T17:31:28Z</time>
      </trkpt>
      <trkpt lat="45.73047" lon="6.02408">
        <ele>929</ele>
        <time>2009-11-01T17:31:33Z</time>
      </trkpt>
      <trkpt lat="45.73029" lon="6.02378">
        <ele>925</ele>
        <time>2009-11-01T17:31:38Z</time>
      </trkpt>
      <trkpt lat="45.73001" lon="6.02358">
        <ele>924</ele>
        <time>2009-11-01T17:31:43Z</time>
      </trkpt>
      <trkpt lat="45.7298" lon="6.02345">
        <ele>924</ele>
        <time>2009-11-01T17:31:48Z</time>
      </trkpt>
      <trkpt lat="45.7296" lon="6.02331">
        <ele>924</ele>
        <time>2009-11-01T17:31:53Z</time>
      </trkpt>
      <trkpt lat="45.72938" lon="6.02313">
        <ele>922</ele>
        <time>2009-11-01T17:31:58Z</time>
      </trkpt>
      <trkpt lat="45.72914" lon="6.02284">
        <ele>918</ele>
        <time>2009-11-01T17:32:03Z</time>
      </trkpt>
      <trkpt lat="45.72896" lon="6.02251">
        <ele>916</ele>
        <time>2009-11-01T17:32:08Z</time>
      </trkpt>
      <trkpt lat="45.72895" lon="6.02231">
        <ele>914</ele>
        <time>2009-11-01T17:32:13Z</time>
      </trkpt>
      <trkpt lat="45.72888" lon="6.02214">
        <ele>914</ele>
        <time>2009-11-01T17:32:18Z</time>
      </trkpt>
      <trkpt lat="45.72867" lon="6.02195">
        <ele>914</ele>
        <time>2009-11-01T17:32:23Z</time>
      </trkpt>
      <trkpt lat="45.72834" lon="6.02198">
        <ele>910</ele>
        <time>2009-11-01T17:32:28Z</time>
      </trkpt>
      <trkpt lat="45.7281" lon="6.02193">
        <ele>905</ele>
        <time>2009-11-01T17:32:33Z</time>
      </trkpt>
      <trkpt lat="45.728" lon="6.02179">
        <ele>900</ele>
        <time>2009-11-01T17:32:38Z</time>
      </trkpt>
      <trkpt lat="45.72789" lon="6.02172">
        <ele>900</ele>
        <time>2009-11-01T17:32:43Z</time>
      </trkpt>
      <trkpt lat="45.72779" lon="6.02165">
        <ele>900</ele>
        <time>2009-11-01T17:32:48Z</time>
      </trkpt>
      <trkpt lat="45.72767" lon="6.02149">
        <ele>900</ele>
        <time>2009-11-01T17:32:53Z</time>
      </trkpt>
      <trkpt lat="45.72756" lon="6.02131">
        <ele>900</ele>
        <time>2009-11-01T17:32:58Z</time>
      </trkpt>
      <trkpt lat="45.72749" lon="6.02119">
        <ele>903</ele>
        <time>2009-11-01T17:33:03Z</time>
      </trkpt>
      <trkpt lat="45.72741" lon="6.0211">
        <ele>904</ele>
        <time>2009-11-01T17:33:08Z</time>
      </trkpt>
      <trkpt lat="45.72732" lon="6.02102">
        <ele>905</ele>
        <time>2009-11-01T17:33:13Z</time>
      </trkpt>
      <trkpt lat="45.72726" lon="6.02092">
        <ele>907</ele>
        <time>2009-11-01T17:33:18Z</time>
      </trkpt>
      <trkpt lat="45.72721" lon="6.02083">
        <ele>911</ele>
        <time>2009-11-01T17:33:23Z</time>
      </trkpt>
      <trkpt lat="45.72713" lon="6.02073">
        <ele>913</ele>
        <time>2009-11-01T17:33:29Z</time>
      </trkpt>
      <trkpt lat="45.72707" lon="6.02067">
        <ele>915</ele>
        <time>2009-11-01T17:33:34Z</time>
      </trkpt>
      <trkpt lat="45.72699" lon="6.02061">
        <ele>914</ele>
        <time>2009-11-01T17:33:40Z</time>
      </trkpt>
      <trkpt lat="45.72686" lon="6.02044">
        <ele>914</ele>
        <time>2009-11-01T17:33:45Z</time>
      </trkpt>
      <trkpt lat="45.72675" lon="6.02034">
        <ele>914</ele>
        <time>2009-11-01T17:33:50Z</time>
      </trkpt>
      <trkpt lat="45.72666" lon="6.02032">
        <ele>914</ele>
        <time>2009-11-01T17:33:56Z</time>
      </trkpt>
      <trkpt lat="45.72658" lon="6.02034">
        <ele>914</ele>
        <time>2009-11-01T17:34:01Z</time>
      </trkpt>
      <trkpt lat="45.72649" lon="6.02034">
        <ele>913</ele>
        <time>2009-11-01T17:34:06Z</time>
      </trkpt>
      <trkpt lat="45.72643" lon="6.02038">
        <ele>909</ele>
        <time>2009-11-01T17:34:11Z</time>
      </trkpt>
      <trkpt lat="45.72635" lon="6.02038">
        <ele>908</ele>
        <time>2009-11-01T17:34:16Z</time>
      </trkpt>
      <trkpt lat="45.72625" lon="6.02036">
        <ele>908</ele>
        <time>2009-11-01T17:34:22Z</time>
      </trkpt>
      <trkpt lat="45.72615" lon="6.0203">
        <ele>908</ele>
        <time>2009-11-01T17:34:28Z</time>
      </trkpt>
      <trkpt lat="45.72608" lon="6.02026">
        <ele>909</ele>
        <time>2009-11-01T17:34:33Z</time>
      </trkpt>
      <trkpt lat="45.72603" lon="6.02027">
        <ele>910</ele>
        <time>2009-11-01T17:34:38Z</time>
      </trkpt>
      <trkpt lat="45.72595" lon="6.0203">
        <ele>910</ele>
        <time>2009-11-01T17:34:43Z</time>
      </trkpt>
      <trkpt lat="45.72586" lon="6.02032">
        <ele>910</ele>
        <time>2009-11-01T17:34:48Z</time>
      </trkpt>
      <trkpt lat="45.7258" lon="6.02035">
        <ele>910</ele>
        <time>2009-11-01T17:34:53Z</time>
      </trkpt>
      <trkpt lat="45.72571" lon="6.02037">
        <ele>910</ele>
        <time>2009-11-01T17:34:58Z</time>
      </trkpt>
      <trkpt lat="45.72561" lon="6.02031">
        <ele>910</ele>
        <time>2009-11-01T17:35:04Z</time>
      </trkpt>
      <trkpt lat="45.72553" lon="6.02025">
        <ele>910</ele>
        <time>2009-11-01T17:35:09Z</time>
      </trkpt>
      <trkpt lat="45.72543" lon="6.02014">
        <ele>913</ele>
        <time>2009-11-01T17:35:14Z</time>
      </trkpt>
      <trkpt lat="45.72536" lon="6.02008">
        <ele>918</ele>
        <time>2009-11-01T17:35:19Z</time>
      </trkpt>
      <trkpt lat="45.72524" lon="6.01999">
        <ele>919</ele>
        <time>2009-11-01T17:35:24Z</time>
      </trkpt>
      <trkpt lat="45.72516" lon="6.01992">
        <ele>919</ele>
        <time>2009-11-01T17:35:29Z</time>
      </trkpt>
      <trkpt lat="45.7251" lon="6.01986">
        <ele>919</ele>
        <time>2009-11-01T17:35:35Z</time>
      </trkpt>
      <trkpt lat="45.72505" lon="6.01978">
        <ele>919</ele>
        <time>2009-11-01T17:35:40Z</time>
      </trkpt>
      <trkpt lat="45.725" lon="6.01969">
        <ele>920</ele>
        <time>2009-11-01T17:35:45Z</time>
      </trkpt>
      <trkpt lat="45.72496" lon="6.01961">
        <ele>923</ele>
        <time>2009-11-01T17:35:50Z</time>
      </trkpt>
      <trkpt lat="45.72489" lon="6.01949">
        <ele>924</ele>
        <time>2009-11-01T17:35:55Z</time>
      </trkpt>
      <trkpt lat="45.72481" lon="6.01944">
        <ele>924</ele>
        <time>2009-11-01T17:36:00Z</time>
      </trkpt>
      <trkpt lat="45.72472" lon="6.01941">
        <ele>924</ele>
        <time>2009-11-01T17:36:05Z</time>
      </trkpt>
      <trkpt lat="45.7246" lon="6.01937">
        <ele>925</ele>
        <time>2009-11-01T17:36:10Z</time>
      </trkpt>
      <trkpt lat="45.72449" lon="6.01934">
        <ele>928</ele>
        <time>2009-11-01T17:36:15Z</time>
      </trkpt>
      <trkpt lat="45.72438" lon="6.01927">
        <ele>929</ele>
        <time>2009-11-01T17:36:20Z</time>
      </trkpt>
      <trkpt lat="45.72431" lon="6.0192">
        <ele>932</ele>
        <time>2009-11-01T17:36:25Z</time>
      </trkpt>
      <trkpt lat="45.7242" lon="6.01913">
        <ele>933</ele>
        <time>2009-11-01T17:36:30Z</time>
      </trkpt>
      <trkpt lat="45.72411" lon="6.01909">
        <ele>935</ele>
        <time>2009-11-01T17:36:35Z</time>
      </trkpt>
      <trkpt lat="45.72403" lon="6.01905">
        <ele>935</ele>
        <time>2009-11-01T17:36:40Z</time>
      </trkpt>
      <trkpt lat="45.72391" lon="6.01901">
        <ele>935</ele>
        <time>2009-11-01T17:36:45Z</time>
      </trkpt>
      <trkpt lat="45.72379" lon="6.01901">
        <ele>934</ele>
        <time>2009-11-01T17:36:50Z</time>
      </trkpt>
      <trkpt lat="45.72363" lon="6.01895">
        <ele>934</ele>
        <time>2009-11-01T17:36:55Z</time>
      </trkpt>
      <trkpt lat="45.72347" lon="6.01896">
        <ele>932</ele>
        <time>2009-11-01T17:37:00Z</time>
      </trkpt>
      <trkpt lat="45.7233" lon="6.01891">
        <ele>929</ele>
        <time>2009-11-01T17:37:05Z</time>
      </trkpt>
      <trkpt lat="45.72318" lon="6.01887">
        <ele>929</ele>
        <time>2009-11-01T17:37:10Z</time>
      </trkpt>
      <trkpt lat="45.7231" lon="6.01887">
        <ele>929</ele>
        <time>2009-11-01T17:37:15Z</time>
      </trkpt>
      <trkpt lat="45.72301" lon="6.01888">
        <ele>929</ele>
        <time>2009-11-01T17:37:20Z</time>
      </trkpt>
      <trkpt lat="45.72293" lon="6.01888">
        <ele>929</ele>
        <time>2009-11-01T17:37:25Z</time>
      </trkpt>
      <trkpt lat="45.7228" lon="6.01888">
        <ele>932</ele>
        <time>2009-11-01T17:37:30Z</time>
      </trkpt>
      <trkpt lat="45.72266" lon="6.01885">
        <ele>934</ele>
        <time>2009-11-01T17:37:35Z</time>
      </trkpt>
      <trkpt lat="45.72255" lon="6.01884">
        <ele>938</ele>
        <time>2009-11-01T17:37:40Z</time>
      </trkpt>
      <trkpt lat="45.72242" lon="6.01878">
        <ele>939</ele>
        <time>2009-11-01T17:37:45Z</time>
      </trkpt>
      <trkpt lat="45.72232" lon="6.01871">
        <ele>943</ele>
        <time>2009-11-01T17:37:50Z</time>
      </trkpt>
      <trkpt lat="45.72223" lon="6.01865">
        <ele>946</ele>
        <time>2009-11-01T17:37:55Z</time>
      </trkpt>
      <trkpt lat="45.72216" lon="6.01858">
        <ele>946</ele>
        <time>2009-11-01T17:38:00Z</time>
      </trkpt>
      <trkpt lat="45.72207" lon="6.01848">
        <ele>948</ele>
        <time>2009-11-01T17:38:05Z</time>
      </trkpt>
      <trkpt lat="45.72198" lon="6.01839">
        <ele>949</ele>
        <time>2009-11-01T17:38:10Z</time>
      </trkpt>
      <trkpt lat="45.72186" lon="6.01829">
        <ele>950</ele>
        <time>2009-11-01T17:38:15Z</time>
      </trkpt>
      <trkpt lat="45.72175" lon="6.01826">
        <ele>950</ele>
        <time>2009-11-01T17:38:20Z</time>
      </trkpt>
      <trkpt lat="45.72161" lon="6.01826">
        <ele>949</ele>
        <time>2009-11-01T17:38:25Z</time>
      </trkpt>
      <trkpt lat="45.72155" lon="6.01832">
        <ele>944</ele>
        <time>2009-11-01T17:38:30Z</time>
      </trkpt>
      <trkpt lat="45.7215" lon="6.01835">
        <ele>940</ele>
        <time>2009-11-01T17:38:36Z</time>
      </trkpt>
      <trkpt lat="45.72146" lon="6.0184">
        <ele>936</ele>
        <time>2009-11-01T17:38:41Z</time>
      </trkpt>
      <trkpt lat="45.72138" lon="6.01847">
        <ele>932</ele>
        <time>2009-11-01T17:38:46Z</time>
      </trkpt>
      <trkpt lat="45.72127" lon="6.01858">
        <ele>927</ele>
        <time>2009-11-01T17:38:51Z</time>
      </trkpt>
      <trkpt lat="45.72112" lon="6.01869">
        <ele>923</ele>
        <time>2009-11-01T17:38:56Z</time>
      </trkpt>
      <trkpt lat="45.72094" lon="6.0188">
        <ele>920</ele>
        <time>2009-11-01T17:39:01Z</time>
      </trkpt>
      <trkpt lat="45.72067" lon="6.01888">
        <ele>917</ele>
        <time>2009-11-01T17:39:06Z</time>
      </trkpt>
      <trkpt lat="45.72046" lon="6.01903">
        <ele>913</ele>
        <time>2009-11-01T17:39:11Z</time>
      </trkpt>
      <trkpt lat="45.72041" lon="6.01917">
        <ele>908</ele>
        <time>2009-11-01T17:39:16Z</time>
      </trkpt>
      <trkpt lat="45.72037" lon="6.01929">
        <ele>903</ele>
        <time>2009-11-01T17:39:21Z</time>
      </trkpt>
      <trkpt lat="45.72031" lon="6.01938">
        <ele>898</ele>
        <time>2009-11-01T17:39:26Z</time>
      </trkpt>
      <trkpt lat="45.72021" lon="6.01942">
        <ele>897</ele>
        <time>2009-11-01T17:39:31Z</time>
      </trkpt>
      <trkpt lat="45.72007" lon="6.01951">
        <ele>897</ele>
        <time>2009-11-01T17:39:36Z</time>
      </trkpt>
      <trkpt lat="45.71974" lon="6.01938">
        <ele>898</ele>
        <time>2009-11-01T17:39:41Z</time>
      </trkpt>
      <trkpt lat="45.71946" lon="6.01927">
        <ele>903</ele>
        <time>2009-11-01T17:39:46Z</time>
      </trkpt>
      <trkpt lat="45.71926" lon="6.01961">
        <ele>901</ele>
        <time>2009-11-01T17:39:51Z</time>
      </trkpt>
      <trkpt lat="45.7189" lon="6.0198">
        <ele>897</ele>
        <time>2009-11-01T17:39:56Z</time>
      </trkpt>
      <trkpt lat="45.71855" lon="6.02001">
        <ele>892</ele>
        <time>2009-11-01T17:40:01Z</time>
      </trkpt>
      <trkpt lat="45.71825" lon="6.01998">
        <ele>888</ele>
        <time>2009-11-01T17:40:06Z</time>
      </trkpt>
      <trkpt lat="45.71796" lon="6.02006">
        <ele>884</ele>
        <time>2009-11-01T17:40:11Z</time>
      </trkpt>
      <trkpt lat="45.71768" lon="6.02003">
        <ele>881</ele>
        <time>2009-11-01T17:40:16Z</time>
      </trkpt>
      <trkpt lat="45.71754" lon="6.02033">
        <ele>876</ele>
        <time>2009-11-01T17:40:21Z</time>
      </trkpt>
      <trkpt lat="45.71744" lon="6.0207">
        <ele>871</ele>
        <time>2009-11-01T17:40:26Z</time>
      </trkpt>
      <trkpt lat="45.7173" lon="6.02107">
        <ele>869</ele>
        <time>2009-11-01T17:40:31Z</time>
      </trkpt>
      <trkpt lat="45.71708" lon="6.02117">
        <ele>866</ele>
        <time>2009-11-01T17:40:36Z</time>
      </trkpt>
      <trkpt lat="45.71702" lon="6.02101">
        <ele>866</ele>
        <time>2009-11-01T17:40:41Z</time>
      </trkpt>
      <trkpt lat="45.71693" lon="6.02091">
        <ele>866</ele>
        <time>2009-11-01T17:40:46Z</time>
      </trkpt>
      <trkpt lat="45.71674" lon="6.0208">
        <ele>866</ele>
        <time>2009-11-01T17:40:51Z</time>
      </trkpt>
      <trkpt lat="45.71657" lon="6.0206">
        <ele>866</ele>
        <time>2009-11-01T17:40:56Z</time>
      </trkpt>
      <trkpt lat="45.71643" lon="6.02037">
        <ele>866</ele>
        <time>2009-11-01T17:41:01Z</time>
      </trkpt>
      <trkpt lat="45.71636" lon="6.02013">
        <ele>862</ele>
        <time>2009-11-01T17:41:06Z</time>
      </trkpt>
      <trkpt lat="45.71639" lon="6.01989">
        <ele>857</ele>
        <time>2009-11-01T17:41:11Z</time>
      </trkpt>
      <trkpt lat="45.71652" lon="6.01969">
        <ele>853</ele>
        <time>2009-11-01T17:41:16Z</time>
      </trkpt>
      <trkpt lat="45.71664" lon="6.01948">
        <ele>849</ele>
        <time>2009-11-01T17:41:21Z</time>
      </trkpt>
      <trkpt lat="45.7166" lon="6.01925">
        <ele>844</ele>
        <time>2009-11-01T17:41:26Z</time>
      </trkpt>
      <trkpt lat="45.71658" lon="6.01905">
        <ele>839</ele>
        <time>2009-11-01T17:41:31Z</time>
      </trkpt>
      <trkpt lat="45.71653" lon="6.01874">
        <ele>834</ele>
        <time>2009-11-01T17:41:36Z</time>
      </trkpt>
      <trkpt lat="45.71652" lon="6.01842">
        <ele>829</ele>
        <time>2009-11-01T17:41:41Z</time>
      </trkpt>
      <trkpt lat="45.71648" lon="6.01812">
        <ele>824</ele>
        <time>2009-11-01T17:41:46Z</time>
      </trkpt>
      <trkpt lat="45.7165" lon="6.01783">
        <ele>820</ele>
        <time>2009-11-01T17:41:51Z</time>
      </trkpt>
      <trkpt lat="45.71663" lon="6.01753">
        <ele>818</ele>
        <time>2009-11-01T17:41:56Z</time>
      </trkpt>
      <trkpt lat="45.71669" lon="6.01719">
        <ele>813</ele>
        <time>2009-11-01T17:42:01Z</time>
      </trkpt>
      <trkpt lat="45.71674" lon="6.01708">
        <ele>809</ele>
        <time>2009-11-01T17:42:06Z</time>
      </trkpt>
      <trkpt lat="45.7167" lon="6.01704">
        <ele>807</ele>
        <time>2009-11-01T17:42:15Z</time>
      </trkpt>
      <trkpt lat="45.71671" lon="6.01707">
        <ele>802</ele>
        <time>2009-11-01T17:42:21Z</time>
      </trkpt>
      <trkpt lat="45.71669" lon="6.0171">
        <ele>796</ele>
        <time>2009-11-01T17:42:28Z</time>
      </trkpt>
      <trkpt lat="45.71674" lon="6.0171">
        <ele>796</ele>
        <time>2009-11-01T17:42:34Z</time>
      </trkpt>
      <trkpt lat="45.7168" lon="6.01704">
        <ele>801</ele>
        <time>2009-11-01T17:42:39Z</time>
      </trkpt>
      <trkpt lat="45.7168" lon="6.01703">
        <ele>810</ele>
        <time>2009-11-01T17:42:48Z</time>
      </trkpt>
      <trkpt lat="45.71677" lon="6.01705">
        <ele>813</ele>
        <time>2009-11-01T17:42:54Z</time>
      </trkpt>
      <trkpt lat="45.71675" lon="6.01707">
        <ele>813</ele>
        <time>2009-11-01T17:43:01Z</time>
      </trkpt>
      <trkpt lat="45.71675" lon="6.01708">
        <ele>813</ele>
        <time>2009-11-01T17:43:07Z</time>
      </trkpt>
      <trkpt lat="45.71675" lon="6.0171">
        <ele>813</ele>
        <time>2009-11-01T17:43:13Z</time>
      </trkpt>
      <trkpt lat="45.71676" lon="6.01711">
        <ele>813</ele>
        <time>2009-11-01T17:43:24Z</time>
      </trkpt>
      <trkpt lat="45.71677" lon="6.01711">
        <ele>813</ele>
        <time>2009-11-01T17:43:30Z</time>
      </trkpt>
      <trkpt lat="45.71678" lon="6.01711">
        <ele>813</ele>
        <time>2009-11-01T17:43:37Z</time>
      </trkpt>
      <trkpt lat="45.71679" lon="6.0171">
        <ele>813</ele>
        <time>2009-11-01T17:43:49Z</time>
      </trkpt>
      <trkpt lat="45.7168" lon="6.0171">
        <ele>817</ele>
        <time>2009-11-01T17:43:59Z</time>
      </trkpt>
      <trkpt lat="45.71682" lon="6.0171">
        <ele>821</ele>
        <time>2009-11-01T17:44:08Z</time>
      </trkpt>
      <trkpt lat="45.71681" lon="6.01709">
        <ele>821</ele>
        <time>2009-11-01T17:44:16Z</time>
      </trkpt>
      <trkpt lat="45.71682" lon="6.0171">
        <ele>821</ele>
        <time>2009-11-01T17:44:21Z</time>
      </trkpt>
      <trkpt lat="45.71685" lon="6.0171">
        <ele>821</ele>
        <time>2009-11-01T17:44:27Z</time>
      </trkpt>
      <trkpt lat="45.71687" lon="6.01711">
        <ele>823</ele>
        <time>2009-11-01T17:44:36Z</time>
      </trkpt>
      <trkpt lat="45.71689" lon="6.01712">
        <ele>825</ele>
        <time>2009-11-01T17:44:44Z</time>
      </trkpt>
      <trkpt lat="45.71687" lon="6.01712">
        <ele>826</ele>
        <time>2009-11-01T17:44:51Z</time>
      </trkpt>
      <trkpt lat="45.71685" lon="6.01711">
        <ele>825</ele>
        <time>2009-11-01T17:44:58Z</time>
      </trkpt>
      <trkpt lat="45.71684" lon="6.0171">
        <ele>820</ele>
        <time>2009-11-01T17:45:12Z</time>
      </trkpt>
      <trkpt lat="45.71682" lon="6.01709">
        <ele>819</ele>
        <time>2009-11-01T17:45:29Z</time>
      </trkpt>
      <trkpt lat="45.7168" lon="6.01708">
        <ele>816</ele>
        <time>2009-11-01T17:45:38Z</time>
      </trkpt>
      <trkpt lat="45.71678" lon="6.01707">
        <ele>811</ele>
        <time>2009-11-01T17:46:13Z</time>
      </trkpt>
      <trkpt lat="45.7168" lon="6.01709">
        <ele>810</ele>
        <time>2009-11-01T17:46:28Z</time>
      </trkpt>
      <trkpt lat="45.71681" lon="6.0171">
        <ele>815</ele>
        <time>2009-11-01T17:46:34Z</time>
      </trkpt>
      <trkpt lat="45.71681" lon="6.01712">
        <ele>822</ele>
        <time>2009-11-01T17:47:00Z</time>
      </trkpt>
      <trkpt lat="45.7168" lon="6.01711">
        <ele>817</ele>
        <time>2009-11-01T17:47:15Z</time>
      </trkpt>
      <trkpt lat="45.71681" lon="6.01711">
        <ele>811</ele>
        <time>2009-11-01T17:47:53Z</time>
      </trkpt>
      <trkpt lat="45.71682" lon="6.01712">
        <ele>811</ele>
        <time>2009-11-01T17:47:58Z</time>
      </trkpt>
      <trkpt lat="45.71683" lon="6.01711">
        <ele>811</ele>
        <time>2009-11-01T17:48:09Z</time>
      </trkpt>
      <trkpt lat="45.71684" lon="6.01711">
        <ele>814</ele>
        <time>2009-11-01T17:48:21Z</time>
      </trkpt>
      <trkpt lat="45.71683" lon="6.0171">
        <ele>814</ele>
        <time>2009-11-01T17:48:38Z</time>
      </trkpt>
      <trkpt lat="45.71684" lon="6.01711">
        <ele>814</ele>
        <time>2009-11-01T17:48:48Z</time>
      </trkpt>
      <trkpt lat="45.71686" lon="6.01713">
        <ele>815</ele>
        <time>2009-11-01T17:48:53Z</time>
      </trkpt>
      <trkpt lat="45.71685" lon="6.01713">
        <ele>817</ele>
        <time>2009-11-01T17:49:09Z</time>
      </trkpt>
      <trkpt lat="45.71686" lon="6.01714">
        <ele>819</ele>
        <time>2009-11-01T17:49:30Z</time>
      </trkpt>
      <trkpt lat="45.7169" lon="6.01713">
        <ele>826</ele>
        <time>2009-11-01T17:49:41Z</time>
      </trkpt>
      <trkpt lat="45.71688" lon="6.01712">
        <ele>823</ele>
        <time>2009-11-01T17:49:47Z</time>
      </trkpt>
      <trkpt lat="45.71683" lon="6.01714">
        <ele>818</ele>
        <time>2009-11-01T17:49:52Z</time>
      </trkpt>
      <trkpt lat="45.71681" lon="6.01718">
        <ele>810</ele>
        <time>2009-11-01T17:49:57Z</time>
      </trkpt>
      <trkpt lat="45.71683" lon="6.0172">
        <ele>801</ele>
        <time>2009-11-01T17:50:06Z</time>
      </trkpt>
      <trkpt lat="45.71686" lon="6.01719">
        <ele>801</ele>
        <time>2009-11-01T17:50:13Z</time>
      </trkpt>
      <trkpt lat="45.71688" lon="6.01717">
        <ele>805</ele>
        <time>2009-11-01T17:50:19Z</time>
      </trkpt>
      <trkpt lat="45.71689" lon="6.01715">
        <ele>819</ele>
        <time>2009-11-01T17:50:33Z</time>
      </trkpt>
      <trkpt lat="45.71691" lon="6.01714">
        <ele>824</ele>
        <time>2009-11-01T17:50:41Z</time>
      </trkpt>
      <trkpt lat="45.71689" lon="6.01713">
        <ele>826</ele>
        <time>2009-11-01T17:50:47Z</time>
      </trkpt>
      <trkpt lat="45.71684" lon="6.01706">
        <ele>825</ele>
        <time>2009-11-01T17:50:52Z</time>
      </trkpt>
      <trkpt lat="45.71677" lon="6.01699">
        <ele>818</ele>
        <time>2009-11-01T17:50:59Z</time>
      </trkpt>
      <trkpt lat="45.71677" lon="6.01697">
        <ele>812</ele>
        <time>2009-11-01T17:51:05Z</time>
      </trkpt>
      <trkpt lat="45.71678" lon="6.01684">
        <ele>809</ele>
        <time>2009-11-01T17:51:10Z</time>
      </trkpt>
      <trkpt lat="45.71678" lon="6.01661">
        <ele>808</ele>
        <time>2009-11-01T17:51:15Z</time>
      </trkpt>
      <trkpt lat="45.71688" lon="6.01631">
        <ele>803</ele>
        <time>2009-11-01T17:51:20Z</time>
      </trkpt>
      <trkpt lat="45.71713" lon="6.01612">
        <ele>798</ele>
        <time>2009-11-01T17:51:25Z</time>
      </trkpt>
      <trkpt lat="45.71711" lon="6.01588">
        <ele>791</ele>
        <time>2009-11-01T17:51:30Z</time>
      </trkpt>
      <trkpt lat="45.71708" lon="6.0155">
        <ele>784</ele>
        <time>2009-11-01T17:51:35Z</time>
      </trkpt>
      <trkpt lat="45.71714" lon="6.01506">
        <ele>778</ele>
        <time>2009-11-01T17:51:40Z</time>
      </trkpt>
      <trkpt lat="45.71715" lon="6.01463">
        <ele>773</ele>
        <time>2009-11-01T17:51:45Z</time>
      </trkpt>
      <trkpt lat="45.7172" lon="6.0142">
        <ele>768</ele>
        <time>2009-11-01T17:51:50Z</time>
      </trkpt>
      <trkpt lat="45.71709" lon="6.01384">
        <ele>763</ele>
        <time>2009-11-01T17:51:55Z</time>
      </trkpt>
      <trkpt lat="45.71697" lon="6.01355">
        <ele>760</ele>
        <time>2009-11-01T17:52:00Z</time>
      </trkpt>
      <trkpt lat="45.71693" lon="6.01331">
        <ele>757</ele>
        <time>2009-11-01T17:52:05Z</time>
      </trkpt>
      <trkpt lat="45.71695" lon="6.01305">
        <ele>752</ele>
        <time>2009-11-01T17:52:10Z</time>
      </trkpt>
      <trkpt lat="45.71694" lon="6.01284">
        <ele>747</ele>
        <time>2009-11-01T17:52:15Z</time>
      </trkpt>
      <trkpt lat="45.71683" lon="6.01263">
        <ele>742</ele>
        <time>2009-11-01T17:52:20Z</time>
      </trkpt>
      <trkpt lat="45.7167" lon="6.0123">
        <ele>738</ele>
        <time>2009-11-01T17:52:25Z</time>
      </trkpt>
      <trkpt lat="45.71665" lon="6.01209">
        <ele>733</ele>
        <time>2009-11-01T17:52:30Z</time>
      </trkpt>
      <trkpt lat="45.71669" lon="6.01193">
        <ele>728</ele>
        <time>2009-11-01T17:52:35Z</time>
      </trkpt>
      <trkpt lat="45.71674" lon="6.01177">
        <ele>727</ele>
        <time>2009-11-01T17:52:40Z</time>
      </trkpt>
      <trkpt lat="45.71675" lon="6.01155">
        <ele>727</ele>
        <time>2009-11-01T17:52:45Z</time>
      </trkpt>
      <trkpt lat="45.71675" lon="6.01122">
        <ele>727</ele>
        <time>2009-11-01T17:52:50Z</time>
      </trkpt>
      <trkpt lat="45.71674" lon="6.01087">
        <ele>725</ele>
        <time>2009-11-01T17:52:55Z</time>
      </trkpt>
      <trkpt lat="45.71669" lon="6.01058">
        <ele>721</ele>
        <time>2009-11-01T17:53:00Z</time>
      </trkpt>
      <trkpt lat="45.71663" lon="6.01035">
        <ele>718</ele>
        <time>2009-11-01T17:53:05Z</time>
      </trkpt>
      <trkpt lat="45.71663" lon="6.01016">
        <ele>718</ele>
        <time>2009-11-01T17:53:10Z</time>
      </trkpt>
      <trkpt lat="45.71662" lon="6.01">
        <ele>716</ele>
        <time>2009-11-01T17:53:15Z</time>
      </trkpt>
      <trkpt lat="45.71679" lon="6.00993">
        <ele>713</ele>
        <time>2009-11-01T17:53:20Z</time>
      </trkpt>
      <trkpt lat="45.71702" lon="6.00987">
        <ele>712</ele>
        <time>2009-11-01T17:53:25Z</time>
      </trkpt>
      <trkpt lat="45.71718" lon="6.00983">
        <ele>711</ele>
        <time>2009-11-01T17:53:30Z</time>
      </trkpt>
      <trkpt lat="45.7173" lon="6.00982">
        <ele>706</ele>
        <time>2009-11-01T17:53:35Z</time>
      </trkpt>
      <trkpt lat="45.71741" lon="6.00979">
        <ele>705</ele>
        <time>2009-11-01T17:53:40Z</time>
      </trkpt>
      <trkpt lat="45.71755" lon="6.00976">
        <ele>705</ele>
        <time>2009-11-01T17:53:45Z</time>
      </trkpt>
      <trkpt lat="45.71766" lon="6.00974">
        <ele>705</ele>
        <time>2009-11-01T17:53:50Z</time>
      </trkpt>
      <trkpt lat="45.71775" lon="6.00969">
        <ele>705</ele>
        <time>2009-11-01T17:53:55Z</time>
      </trkpt>
      <trkpt lat="45.71786" lon="6.00961">
        <ele>704</ele>
        <time>2009-11-01T17:54:00Z</time>
      </trkpt>
      <trkpt lat="45.71796" lon="6.00951">
        <ele>704</ele>
        <time>2009-11-01T17:54:05Z</time>
      </trkpt>
      <trkpt lat="45.71804" lon="6.00944">
        <ele>703</ele>
        <time>2009-11-01T17:54:10Z</time>
      </trkpt>
      <trkpt lat="45.71815" lon="6.00936">
        <ele>702</ele>
        <time>2009-11-01T17:54:15Z</time>
      </trkpt>
      <trkpt lat="45.71826" lon="6.00928">
        <ele>702</ele>
        <time>2009-11-01T17:54:20Z</time>
      </trkpt>
      <trkpt lat="45.71837" lon="6.0092">
        <ele>702</ele>
        <time>2009-11-01T17:54:25Z</time>
      </trkpt>
      <trkpt lat="45.71846" lon="6.00914">
        <ele>704</ele>
        <time>2009-11-01T17:54:30Z</time>
      </trkpt>
      <trkpt lat="45.71853" lon="6.00909">
        <ele>704</ele>
        <time>2009-11-01T17:54:35Z</time>
      </trkpt>
      <trkpt lat="45.71862" lon="6.00902">
        <ele>704</ele>
        <time>2009-11-01T17:54:40Z</time>
      </trkpt>
      <trkpt lat="45.71873" lon="6.00895">
        <ele>706</ele>
        <time>2009-11-01T17:54:45Z</time>
      </trkpt>
      <trkpt lat="45.71882" lon="6.00892">
        <ele>707</ele>
        <time>2009-11-01T17:54:50Z</time>
      </trkpt>
      <trkpt lat="45.71896" lon="6.00891">
        <ele>711</ele>
        <time>2009-11-01T17:54:56Z</time>
      </trkpt>
      <trkpt lat="45.71905" lon="6.00897">
        <ele>716</ele>
        <time>2009-11-01T17:55:01Z</time>
      </trkpt>
      <trkpt lat="45.71914" lon="6.00909">
        <ele>721</ele>
        <time>2009-11-01T17:55:06Z</time>
      </trkpt>
      <trkpt lat="45.71922" lon="6.00921">
        <ele>726</ele>
        <time>2009-11-01T17:55:11Z</time>
      </trkpt>
      <trkpt lat="45.71931" lon="6.0093">
        <ele>730</ele>
        <time>2009-11-01T17:55:16Z</time>
      </trkpt>
      <trkpt lat="45.71941" lon="6.00934">
        <ele>735</ele>
        <time>2009-11-01T17:55:21Z</time>
      </trkpt>
      <trkpt lat="45.7195" lon="6.00939">
        <ele>740</ele>
        <time>2009-11-01T17:55:26Z</time>
      </trkpt>
      <trkpt lat="45.71958" lon="6.00943">
        <ele>744</ele>
        <time>2009-11-01T17:55:31Z</time>
      </trkpt>
      <trkpt lat="45.71968" lon="6.00948">
        <ele>747</ele>
        <time>2009-11-01T17:55:36Z</time>
      </trkpt>
      <trkpt lat="45.71979" lon="6.00951">
        <ele>752</ele>
        <time>2009-11-01T17:55:41Z</time>
      </trkpt>
      <trkpt lat="45.71988" lon="6.00958">
        <ele>756</ele>
        <time>2009-11-01T17:55:46Z</time>
      </trkpt>
      <trkpt lat="45.71992" lon="6.00968">
        <ele>756</ele>
        <time>2009-11-01T17:55:51Z</time>
      </trkpt>
      <trkpt lat="45.71993" lon="6.00982">
        <ele>756</ele>
        <time>2009-11-01T17:55:56Z</time>
      </trkpt>
      <trkpt lat="45.71998" lon="6.00994">
        <ele>756</ele>
        <time>2009-11-01T17:56:01Z</time>
      </trkpt>
      <trkpt lat="45.72005" lon="6.01003">
        <ele>756</ele>
        <time>2009-11-01T17:56:06Z</time>
      </trkpt>
      <trkpt lat="45.72016" lon="6.01006">
        <ele>756</ele>
        <time>2009-11-01T17:56:11Z</time>
      </trkpt>
      <trkpt lat="45.72031" lon="6.01009">
        <ele>753</ele>
        <time>2009-11-01T17:56:16Z</time>
      </trkpt>
      <trkpt lat="45.72046" lon="6.01013">
        <ele>751</ele>
        <time>2009-11-01T17:56:21Z</time>
      </trkpt>
      <trkpt lat="45.72063" lon="6.01017">
        <ele>749</ele>
        <time>2009-11-01T17:56:26Z</time>
      </trkpt>
      <trkpt lat="45.72077" lon="6.01027">
        <ele>749</ele>
        <time>2009-11-01T17:56:31Z</time>
      </trkpt>
      <trkpt lat="45.72089" lon="6.01036">
        <ele>749</ele>
        <time>2009-11-01T17:56:36Z</time>
      </trkpt>
      <trkpt lat="45.72099" lon="6.01045">
        <ele>753</ele>
        <time>2009-11-01T17:56:41Z</time>
      </trkpt>
      <trkpt lat="45.72111" lon="6.01054">
        <ele>754</ele>
        <time>2009-11-01T17:56:46Z</time>
      </trkpt>
      <trkpt lat="45.72125" lon="6.01051">
        <ele>754</ele>
        <time>2009-11-01T17:56:51Z</time>
      </trkpt>
      <trkpt lat="45.72134" lon="6.01039">
        <ele>748</ele>
        <time>2009-11-01T17:56:56Z</time>
      </trkpt>
      <trkpt lat="45.72145" lon="6.01026">
        <ele>739</ele>
        <time>2009-11-01T17:57:01Z</time>
      </trkpt>
      <trkpt lat="45.72159" lon="6.01012">
        <ele>733</ele>
        <time>2009-11-01T17:57:06Z</time>
      </trkpt>
      <trkpt lat="45.72174" lon="6.00997">
        <ele>729</ele>
        <time>2009-11-01T17:57:11Z</time>
      </trkpt>
      <trkpt lat="45.72198" lon="6.00989">
        <ele>731</ele>
        <time>2009-11-01T17:57:16Z</time>
      </trkpt>
      <trkpt lat="45.72218" lon="6.01">
        <ele>736</ele>
        <time>2009-11-01T17:57:21Z</time>
      </trkpt>
      <trkpt lat="45.72233" lon="6.01015">
        <ele>743</ele>
        <time>2009-11-01T17:57:26Z</time>
      </trkpt>
      <trkpt lat="45.72245" lon="6.01031">
        <ele>748</ele>
        <time>2009-11-01T17:57:31Z</time>
      </trkpt>
      <trkpt lat="45.72258" lon="6.01047">
        <ele>753</ele>
        <time>2009-11-01T17:57:36Z</time>
      </trkpt>
      <trkpt lat="45.72273" lon="6.01055">
        <ele>755</ele>
        <time>2009-11-01T17:57:41Z</time>
      </trkpt>
      <trkpt lat="45.72293" lon="6.01053">
        <ele>755</ele>
        <time>2009-11-01T17:57:46Z</time>
      </trkpt>
      <trkpt lat="45.72313" lon="6.01059">
        <ele>755</ele>
        <time>2009-11-01T17:57:51Z</time>
      </trkpt>
      <trkpt lat="45.72339" lon="6.01071">
        <ele>755</ele>
        <time>2009-11-01T17:57:56Z</time>
      </trkpt>
      <trkpt lat="45.72363" lon="6.01078">
        <ele>755</ele>
        <time>2009-11-01T17:58:01Z</time>
      </trkpt>
      <trkpt lat="45.72386" lon="6.01093">
        <ele>755</ele>
        <time>2009-11-01T17:58:06Z</time>
      </trkpt>
      <trkpt lat="45.72415" lon="6.01107">
        <ele>755</ele>
        <time>2009-11-01T17:58:11Z</time>
      </trkpt>
      <trkpt lat="45.72447" lon="6.01136">
        <ele>752</ele>
        <time>2009-11-01T17:58:16Z</time>
      </trkpt>
      <trkpt lat="45.72482" lon="6.01167">
        <ele>748</ele>
        <time>2009-11-01T17:58:21Z</time>
      </trkpt>
      <trkpt lat="45.72514" lon="6.0119">
        <ele>748</ele>
        <time>2009-11-01T17:58:26Z</time>
      </trkpt>
      <trkpt lat="45.72537" lon="6.01208">
        <ele>748</ele>
        <time>2009-11-01T17:58:31Z</time>
      </trkpt>
      <trkpt lat="45.72561" lon="6.01228">
        <ele>748</ele>
        <time>2009-11-01T17:58:36Z</time>
      </trkpt>
      <trkpt lat="45.72587" lon="6.01231">
        <ele>748</ele>
        <time>2009-11-01T17:58:41Z</time>
      </trkpt>
      <trkpt lat="45.72611" lon="6.0124">
        <ele>748</ele>
        <time>2009-11-01T17:58:46Z</time>
      </trkpt>
      <trkpt lat="45.7263" lon="6.01264">
        <ele>748</ele>
        <time>2009-11-01T17:58:51Z</time>
      </trkpt>
      <trkpt lat="45.72653" lon="6.01277">
        <ele>748</ele>
        <time>2009-11-01T17:58:56Z</time>
      </trkpt>
      <trkpt lat="45.72679" lon="6.01283">
        <ele>748</ele>
        <time>2009-11-01T17:59:01Z</time>
      </trkpt>
      <trkpt lat="45.72709" lon="6.01288">
        <ele>748</ele>
        <time>2009-11-01T17:59:06Z</time>
      </trkpt>
      <trkpt lat="45.72739" lon="6.01295">
        <ele>748</ele>
        <time>2009-11-01T17:59:11Z</time>
      </trkpt>
      <trkpt lat="45.7277" lon="6.01317">
        <ele>748</ele>
        <time>2009-11-01T17:59:16Z</time>
      </trkpt>
      <trkpt lat="45.72805" lon="6.01317">
        <ele>748</ele>
        <time>2009-11-01T17:59:21Z</time>
      </trkpt>
      <trkpt lat="45.72836" lon="6.01302">
        <ele>747</ele>
        <time>2009-11-01T17:59:26Z</time>
      </trkpt>
      <trkpt lat="45.72861" lon="6.0133">
        <ele>744</ele>
        <time>2009-11-01T17:59:31Z</time>
      </trkpt>
      <trkpt lat="45.72894" lon="6.01318">
        <ele>740</ele>
        <time>2009-11-01T17:59:36Z</time>
      </trkpt>
      <trkpt lat="45.72931" lon="6.01317">
        <ele>739</ele>
        <time>2009-11-01T17:59:41Z</time>
      </trkpt>
      <trkpt lat="45.72971" lon="6.01334">
        <ele>737</ele>
        <time>2009-11-01T17:59:46Z</time>
      </trkpt>
      <trkpt lat="45.73013" lon="6.01345">
        <ele>735</ele>
        <time>2009-11-01T17:59:51Z</time>
      </trkpt>
      <trkpt lat="45.7305" lon="6.01329">
        <ele>733</ele>
        <time>2009-11-01T17:59:56Z</time>
      </trkpt>
      <trkpt lat="45.73079" lon="6.01318">
        <ele>731</ele>
        <time>2009-11-01T18:00:01Z</time>
      </trkpt>
      <trkpt lat="45.7311" lon="6.01333">
        <ele>729</ele>
        <time>2009-11-01T18:00:06Z</time>
      </trkpt>
      <trkpt lat="45.73145" lon="6.01332">
        <ele>725</ele>
        <time>2009-11-01T18:00:11Z</time>
      </trkpt>
      <trkpt lat="45.73179" lon="6.01319">
        <ele>722</ele>
        <time>2009-11-01T18:00:16Z</time>
      </trkpt>
      <trkpt lat="45.73199" lon="6.0132">
        <ele>721</ele>
        <time>2009-11-01T18:00:21Z</time>
      </trkpt>
      <trkpt lat="45.73208" lon="6.01316">
        <ele>718</ele>
        <time>2009-11-01T18:00:26Z</time>
      </trkpt>
      <trkpt lat="45.73213" lon="6.0129">
        <ele>713</ele>
        <time>2009-11-01T18:00:31Z</time>
      </trkpt>
      <trkpt lat="45.73226" lon="6.01244">
        <ele>708</ele>
        <time>2009-11-01T18:00:36Z</time>
      </trkpt>
      <trkpt lat="45.73249" lon="6.01158">
        <ele>700</ele>
        <time>2009-11-01T18:00:42Z</time>
      </trkpt>
      <trkpt lat="45.73261" lon="6.01073">
        <ele>693</ele>
        <time>2009-11-01T18:00:47Z</time>
      </trkpt>
      <trkpt lat="45.73259" lon="6.01">
        <ele>688</ele>
        <time>2009-11-01T18:00:52Z</time>
      </trkpt>
      <trkpt lat="45.73246" lon="6.00937">
        <ele>683</ele>
        <time>2009-11-01T18:00:57Z</time>
      </trkpt>
      <trkpt lat="45.73228" lon="6.00891">
        <ele>678</ele>
        <time>2009-11-01T18:01:02Z</time>
      </trkpt>
      <trkpt lat="45.73203" lon="6.00856">
        <ele>673</ele>
        <time>2009-11-01T18:01:07Z</time>
      </trkpt>
      <trkpt lat="45.73175" lon="6.00881">
        <ele>670</ele>
        <time>2009-11-01T18:01:12Z</time>
      </trkpt>
      <trkpt lat="45.73159" lon="6.00914">
        <ele>666</ele>
        <time>2009-11-01T18:01:17Z</time>
      </trkpt>
      <trkpt lat="45.73128" lon="6.00914">
        <ele>663</ele>
        <time>2009-11-01T18:01:22Z</time>
      </trkpt>
      <trkpt lat="45.73104" lon="6.00895">
        <ele>661</ele>
        <time>2009-11-01T18:01:27Z</time>
      </trkpt>
      <trkpt lat="45.73082" lon="6.00857">
        <ele>658</ele>
        <time>2009-11-01T18:01:32Z</time>
      </trkpt>
      <trkpt lat="45.73047" lon="6.00833">
        <ele>656</ele>
        <time>2009-11-01T18:01:37Z</time>
      </trkpt>
      <trkpt lat="45.73015" lon="6.00823">
        <ele>656</ele>
        <time>2009-11-01T18:01:42Z</time>
      </trkpt>
      <trkpt lat="45.73006" lon="6.00793">
        <ele>655</ele>
        <time>2009-11-01T18:01:47Z</time>
      </trkpt>
      <trkpt lat="45.73034" lon="6.00789">
        <ele>653</ele>
        <time>2009-11-01T18:01:52Z</time>
      </trkpt>
      <trkpt lat="45.73045" lon="6.00765">
        <ele>652</ele>
        <time>2009-11-01T18:01:57Z</time>
      </trkpt>
      <trkpt lat="45.73027" lon="6.00752">
        <ele>647</ele>
        <time>2009-11-01T18:02:02Z</time>
      </trkpt>
      <trkpt lat="45.73025" lon="6.00724">
        <ele>643</ele>
        <time>2009-11-01T18:02:07Z</time>
      </trkpt>
      <trkpt lat="45.73033" lon="6.00687">
        <ele>638</ele>
        <time>2009-11-01T18:02:12Z</time>
      </trkpt>
      <trkpt lat="45.73043" lon="6.0064">
        <ele>633</ele>
        <time>2009-11-01T18:02:17Z</time>
      </trkpt>
      <trkpt lat="45.73049" lon="6.00606">
        <ele>628</ele>
        <time>2009-11-01T18:02:22Z</time>
      </trkpt>
      <trkpt lat="45.73046" lon="6.00593">
        <ele>623</ele>
        <time>2009-11-01T18:02:27Z</time>
      </trkpt>
      <trkpt lat="45.73043" lon="6.00583">
        <ele>621</ele>
        <time>2009-11-01T18:02:32Z</time>
      </trkpt>
      <trkpt lat="45.73048" lon="6.00567">
        <ele>621</ele>
        <time>2009-11-01T18:02:37Z</time>
      </trkpt>
      <trkpt lat="45.73059" lon="6.00552">
        <ele>621</ele>
        <time>2009-11-01T18:02:42Z</time>
      </trkpt>
      <trkpt lat="45.73069" lon="6.00538">
        <ele>621</ele>
        <time>2009-11-01T18:02:47Z</time>
      </trkpt>
      <trkpt lat="45.7308" lon="6.00525">
        <ele>621</ele>
        <time>2009-11-01T18:02:52Z</time>
      </trkpt>
      <trkpt lat="45.73092" lon="6.00509">
        <ele>621</ele>
        <time>2009-11-01T18:02:57Z</time>
      </trkpt>
      <trkpt lat="45.73108" lon="6.0049">
        <ele>621</ele>
        <time>2009-11-01T18:03:02Z</time>
      </trkpt>
      <trkpt lat="45.73128" lon="6.00474">
        <ele>621</ele>
        <time>2009-11-01T18:03:07Z</time>
      </trkpt>
      <trkpt lat="45.73155" lon="6.0046">
        <ele>621</ele>
        <time>2009-11-01T18:03:12Z</time>
      </trkpt>
      <trkpt lat="45.7319" lon="6.00452">
        <ele>621</ele>
        <time>2009-11-01T18:03:17Z</time>
      </trkpt>
      <trkpt lat="45.73232" lon="6.0045">
        <ele>620</ele>
        <time>2009-11-01T18:03:22Z</time>
      </trkpt>
      <trkpt lat="45.73274" lon="6.00426">
        <ele>617</ele>
        <time>2009-11-01T18:03:27Z</time>
      </trkpt>
      <trkpt lat="45.73328" lon="6.00387">
        <ele>614</ele>
        <time>2009-11-01T18:03:33Z</time>
      </trkpt>
      <trkpt lat="45.7338" lon="6.00381">
        <ele>612</ele>
        <time>2009-11-01T18:03:38Z</time>
      </trkpt>
      <trkpt lat="45.73419" lon="6.00338">
        <ele>609</ele>
        <time>2009-11-01T18:03:43Z</time>
      </trkpt>
      <trkpt lat="45.73446" lon="6.00317">
        <ele>605</ele>
        <time>2009-11-01T18:03:48Z</time>
      </trkpt>
      <trkpt lat="45.73468" lon="6.00291">
        <ele>603</ele>
        <time>2009-11-01T18:03:53Z</time>
      </trkpt>
      <trkpt lat="45.73481" lon="6.00276">
        <ele>601</ele>
        <time>2009-11-01T18:03:58Z</time>
      </trkpt>
      <trkpt lat="45.7348" lon="6.00252">
        <ele>597</ele>
        <time>2009-11-01T18:04:03Z</time>
      </trkpt>
      <trkpt lat="45.73478" lon="6.0023">
        <ele>594</ele>
        <time>2009-11-01T18:04:08Z</time>
      </trkpt>
      <trkpt lat="45.73482" lon="6.00214">
        <ele>593</ele>
        <time>2009-11-01T18:04:13Z</time>
      </trkpt>
      <trkpt lat="45.73489" lon="6.00191">
        <ele>593</ele>
        <time>2009-11-01T18:04:18Z</time>
      </trkpt>
      <trkpt lat="45.73479" lon="6.00177">
        <ele>593</ele>
        <time>2009-11-01T18:04:23Z</time>
      </trkpt>
      <trkpt lat="45.73475" lon="6.00164">
        <ele>591</ele>
        <time>2009-11-01T18:04:28Z</time>
      </trkpt>
      <trkpt lat="45.73474" lon="6.00157">
        <ele>589</ele>
        <time>2009-11-01T18:04:32Z</time>
      </trkpt>
    </trkseg>
  </trk>
</gpx>